<?xml version="1.0" encoding="UTF-8" standalone="no" ?>
<gpx xmlns="http://www.topografix.com/GPX/1/1" xmlns:xsi="http://www.w3.org/2001/XMLSchema-instance" xsi:schemaLocation="http://www.topografix.com/GPX/1/1 http://www.topografix.com/GPX/1/1/gpx.xsd" version="1.1" creator="VisuGPX - https://www.visugpx.com">
  <metadata>
    <name>Saint Jeannet</name>
    <desc><![CDATA[départ de Saint Jeannet direction Le Broc, puis DFCI de Berdine, à la balise 135 direction Mouton d\'Anou puis piste du gaz jusqu\'au vallon de la Sine, montée vers le sommet du Broc et bifurcation vers le long plateau du Baou de la Gaude, descente par le Jas Jausserand.]]></desc>
  </metadata>
  <trk>
    <name><![CDATA[2012-06-17 Saint Jeannet]]></name>
    <trkseg>
      <trkpt lat="43.74906" lon="7.14921">
        <ele>430.80798339844</ele>
        <time>2012-06-17T07:03:56Z</time>
      </trkpt>
      <trkpt lat="43.74906" lon="7.14921">
        <ele>430.80798339844</ele>
        <time>2012-06-17T07:03:57Z</time>
      </trkpt>
      <trkpt lat="43.74906" lon="7.14921">
        <ele>430.80798339844</ele>
        <time>2012-06-17T07:03:58Z</time>
      </trkpt>
      <trkpt lat="43.74905" lon="7.1492">
        <ele>430.80798339844</ele>
        <time>2012-06-17T07:04:21Z</time>
      </trkpt>
      <trkpt lat="43.7491" lon="7.1492">
        <ele>431.76916503906</ele>
        <time>2012-06-17T07:06:21Z</time>
      </trkpt>
      <trkpt lat="43.7491" lon="7.14921">
        <ele>431.28857421875</ele>
        <time>2012-06-17T07:06:34Z</time>
      </trkpt>
      <trkpt lat="43.74906" lon="7.14936">
        <ele>430.80798339844</ele>
        <time>2012-06-17T07:06:40Z</time>
      </trkpt>
      <trkpt lat="43.74905" lon="7.14959">
        <ele>430.32727050781</ele>
        <time>2012-06-17T07:06:45Z</time>
      </trkpt>
      <trkpt lat="43.74901" lon="7.14997">
        <ele>428.88537597656</ele>
        <time>2012-06-17T07:06:52Z</time>
      </trkpt>
      <trkpt lat="43.74905" lon="7.15032">
        <ele>426.96276855469</ele>
        <time>2012-06-17T07:06:57Z</time>
      </trkpt>
      <trkpt lat="43.74899" lon="7.15054">
        <ele>422.63671875</ele>
        <time>2012-06-17T07:07:02Z</time>
      </trkpt>
      <trkpt lat="43.74907" lon="7.15063">
        <ele>420.71411132812</ele>
        <time>2012-06-17T07:07:04Z</time>
      </trkpt>
      <trkpt lat="43.74928" lon="7.15084">
        <ele>416.86889648438</ele>
        <time>2012-06-17T07:07:08Z</time>
      </trkpt>
      <trkpt lat="43.74944" lon="7.15115">
        <ele>413.02355957031</ele>
        <time>2012-06-17T07:07:13Z</time>
      </trkpt>
      <trkpt lat="43.74951" lon="7.15153">
        <ele>408.69763183594</ele>
        <time>2012-06-17T07:07:19Z</time>
      </trkpt>
      <trkpt lat="43.74949" lon="7.15173">
        <ele>405.81372070312</ele>
        <time>2012-06-17T07:07:23Z</time>
      </trkpt>
      <trkpt lat="43.74944" lon="7.152">
        <ele>402.44909667969</ele>
        <time>2012-06-17T07:07:29Z</time>
      </trkpt>
      <trkpt lat="43.74941" lon="7.15225">
        <ele>399.08435058594</ele>
        <time>2012-06-17T07:07:36Z</time>
      </trkpt>
      <trkpt lat="43.7494" lon="7.15231">
        <ele>398.60375976562</ele>
        <time>2012-06-17T07:07:37Z</time>
      </trkpt>
      <trkpt lat="43.74938" lon="7.15254">
        <ele>396.20056152344</ele>
        <time>2012-06-17T07:07:40Z</time>
      </trkpt>
      <trkpt lat="43.74932" lon="7.15289">
        <ele>392.8359375</ele>
        <time>2012-06-17T07:07:44Z</time>
      </trkpt>
      <trkpt lat="43.74929" lon="7.153">
        <ele>392.35534667969</ele>
        <time>2012-06-17T07:07:46Z</time>
      </trkpt>
      <trkpt lat="43.74917" lon="7.15319">
        <ele>388.51000976562</ele>
        <time>2012-06-17T07:07:50Z</time>
      </trkpt>
      <trkpt lat="43.74902" lon="7.15337">
        <ele>385.14538574219</ele>
        <time>2012-06-17T07:07:56Z</time>
      </trkpt>
      <trkpt lat="43.74913" lon="7.15382">
        <ele>386.58740234375</ele>
        <time>2012-06-17T07:08:06Z</time>
      </trkpt>
      <trkpt lat="43.74919" lon="7.15423">
        <ele>387.06799316406</ele>
        <time>2012-06-17T07:08:14Z</time>
      </trkpt>
      <trkpt lat="43.74928" lon="7.15447">
        <ele>387.54858398438</ele>
        <time>2012-06-17T07:08:19Z</time>
      </trkpt>
      <trkpt lat="43.74954" lon="7.15488">
        <ele>389.47119140625</ele>
        <time>2012-06-17T07:08:30Z</time>
      </trkpt>
      <trkpt lat="43.74972" lon="7.15536">
        <ele>389.95190429688</ele>
        <time>2012-06-17T07:08:39Z</time>
      </trkpt>
      <trkpt lat="43.74988" lon="7.15556">
        <ele>391.87451171875</ele>
        <time>2012-06-17T07:08:45Z</time>
      </trkpt>
      <trkpt lat="43.75007" lon="7.15609">
        <ele>395.23913574219</ele>
        <time>2012-06-17T07:08:57Z</time>
      </trkpt>
      <trkpt lat="43.75027" lon="7.15687">
        <ele>391.39379882812</ele>
        <time>2012-06-17T07:09:11Z</time>
      </trkpt>
      <trkpt lat="43.75031" lon="7.15709">
        <ele>388.51000976562</ele>
        <time>2012-06-17T07:09:14Z</time>
      </trkpt>
      <trkpt lat="43.7504" lon="7.15736">
        <ele>384.18408203125</ele>
        <time>2012-06-17T07:09:17Z</time>
      </trkpt>
      <trkpt lat="43.75043" lon="7.15744">
        <ele>383.70324707031</ele>
        <time>2012-06-17T07:09:18Z</time>
      </trkpt>
      <trkpt lat="43.75069" lon="7.1578">
        <ele>381.30004882812</ele>
        <time>2012-06-17T07:09:27Z</time>
      </trkpt>
      <trkpt lat="43.75149" lon="7.15839">
        <ele>378.41613769531</ele>
        <time>2012-06-17T07:09:43Z</time>
      </trkpt>
      <trkpt lat="43.75214" lon="7.15927">
        <ele>376.97424316406</ele>
        <time>2012-06-17T07:09:57Z</time>
      </trkpt>
      <trkpt lat="43.75285" lon="7.16049">
        <ele>377.45483398438</ele>
        <time>2012-06-17T07:10:14Z</time>
      </trkpt>
      <trkpt lat="43.75345" lon="7.16124">
        <ele>380.33874511719</ele>
        <time>2012-06-17T07:10:29Z</time>
      </trkpt>
      <trkpt lat="43.75394" lon="7.16162">
        <ele>382.26135253906</ele>
        <time>2012-06-17T07:10:40Z</time>
      </trkpt>
      <trkpt lat="43.75408" lon="7.16169">
        <ele>382.26135253906</ele>
        <time>2012-06-17T07:10:43Z</time>
      </trkpt>
      <trkpt lat="43.75427" lon="7.16191">
        <ele>382.74206542969</ele>
        <time>2012-06-17T07:10:48Z</time>
      </trkpt>
      <trkpt lat="43.75495" lon="7.16314">
        <ele>385.14538574219</ele>
        <time>2012-06-17T07:11:09Z</time>
      </trkpt>
      <trkpt lat="43.75564" lon="7.16373">
        <ele>388.51000976562</ele>
        <time>2012-06-17T07:11:26Z</time>
      </trkpt>
      <trkpt lat="43.75587" lon="7.16386">
        <ele>388.99060058594</ele>
        <time>2012-06-17T07:11:31Z</time>
      </trkpt>
      <trkpt lat="43.75603" lon="7.16402">
        <ele>389.47119140625</ele>
        <time>2012-06-17T07:11:35Z</time>
      </trkpt>
      <trkpt lat="43.75626" lon="7.16438">
        <ele>390.4326171875</ele>
        <time>2012-06-17T07:11:42Z</time>
      </trkpt>
      <trkpt lat="43.7566" lon="7.1647">
        <ele>393.79724121094</ele>
        <time>2012-06-17T07:11:53Z</time>
      </trkpt>
      <trkpt lat="43.75692" lon="7.16497">
        <ele>397.16174316406</ele>
        <time>2012-06-17T07:12:05Z</time>
      </trkpt>
      <trkpt lat="43.75726" lon="7.16532">
        <ele>400.0458984375</ele>
        <time>2012-06-17T07:12:19Z</time>
      </trkpt>
      <trkpt lat="43.75767" lon="7.16568">
        <ele>403.41040039062</ele>
        <time>2012-06-17T07:12:35Z</time>
      </trkpt>
      <trkpt lat="43.75807" lon="7.16595">
        <ele>406.29431152344</ele>
        <time>2012-06-17T07:12:50Z</time>
      </trkpt>
      <trkpt lat="43.75848" lon="7.16617">
        <ele>409.17834472656</ele>
        <time>2012-06-17T07:13:07Z</time>
      </trkpt>
      <trkpt lat="43.75902" lon="7.16616">
        <ele>410.62023925781</ele>
        <time>2012-06-17T07:13:24Z</time>
      </trkpt>
      <trkpt lat="43.75906" lon="7.16616">
        <ele>410.62023925781</ele>
        <time>2012-06-17T07:13:25Z</time>
      </trkpt>
      <trkpt lat="43.75933" lon="7.16625">
        <ele>411.10095214844</ele>
        <time>2012-06-17T07:13:32Z</time>
      </trkpt>
      <trkpt lat="43.75947" lon="7.16638">
        <ele>411.10095214844</ele>
        <time>2012-06-17T07:13:36Z</time>
      </trkpt>
      <trkpt lat="43.75976" lon="7.16678">
        <ele>411.10095214844</ele>
        <time>2012-06-17T07:13:45Z</time>
      </trkpt>
      <trkpt lat="43.76014" lon="7.16749">
        <ele>412.54284667969</ele>
        <time>2012-06-17T07:14:01Z</time>
      </trkpt>
      <trkpt lat="43.76059" lon="7.16795">
        <ele>413.02355957031</ele>
        <time>2012-06-17T07:14:15Z</time>
      </trkpt>
      <trkpt lat="43.76074" lon="7.16816">
        <ele>413.50427246094</ele>
        <time>2012-06-17T07:14:20Z</time>
      </trkpt>
      <trkpt lat="43.76123" lon="7.16842">
        <ele>415.42687988281</ele>
        <time>2012-06-17T07:14:34Z</time>
      </trkpt>
      <trkpt lat="43.76144" lon="7.16855">
        <ele>415.90747070312</ele>
        <time>2012-06-17T07:14:40Z</time>
      </trkpt>
      <trkpt lat="43.76169" lon="7.16871">
        <ele>415.90747070312</ele>
        <time>2012-06-17T07:14:46Z</time>
      </trkpt>
      <trkpt lat="43.76177" lon="7.16877">
        <ele>414.46545410156</ele>
        <time>2012-06-17T07:14:48Z</time>
      </trkpt>
      <trkpt lat="43.76186" lon="7.16885">
        <ele>414.46545410156</ele>
        <time>2012-06-17T07:14:50Z</time>
      </trkpt>
      <trkpt lat="43.76195" lon="7.1689">
        <ele>414.46545410156</ele>
        <time>2012-06-17T07:14:52Z</time>
      </trkpt>
      <trkpt lat="43.76214" lon="7.16894">
        <ele>414.46545410156</ele>
        <time>2012-06-17T07:14:56Z</time>
      </trkpt>
      <trkpt lat="43.7628" lon="7.16915">
        <ele>416.86889648438</ele>
        <time>2012-06-17T07:15:11Z</time>
      </trkpt>
      <trkpt lat="43.76319" lon="7.16922">
        <ele>417.349609375</ele>
        <time>2012-06-17T07:15:21Z</time>
      </trkpt>
      <trkpt lat="43.76327" lon="7.16922">
        <ele>418.31079101562</ele>
        <time>2012-06-17T07:15:23Z</time>
      </trkpt>
      <trkpt lat="43.76348" lon="7.16917">
        <ele>417.83020019531</ele>
        <time>2012-06-17T07:15:28Z</time>
      </trkpt>
      <trkpt lat="43.76374" lon="7.16915">
        <ele>415.90747070312</ele>
        <time>2012-06-17T07:15:34Z</time>
      </trkpt>
      <trkpt lat="43.76388" lon="7.16916">
        <ele>416.38818359375</ele>
        <time>2012-06-17T07:15:42Z</time>
      </trkpt>
      <trkpt lat="43.76387" lon="7.16916">
        <ele>416.38818359375</ele>
        <time>2012-06-17T07:16:19Z</time>
      </trkpt>
      <trkpt lat="43.7638" lon="7.16916">
        <ele>416.38818359375</ele>
        <time>2012-06-17T07:16:24Z</time>
      </trkpt>
      <trkpt lat="43.76378" lon="7.16913">
        <ele>416.38818359375</ele>
        <time>2012-06-17T07:16:40Z</time>
      </trkpt>
      <trkpt lat="43.76379" lon="7.16913">
        <ele>416.38818359375</ele>
        <time>2012-06-17T07:16:47Z</time>
      </trkpt>
      <trkpt lat="43.76404" lon="7.16918">
        <ele>413.50427246094</ele>
        <time>2012-06-17T07:16:56Z</time>
      </trkpt>
      <trkpt lat="43.76421" lon="7.16916">
        <ele>412.06225585938</ele>
        <time>2012-06-17T07:16:59Z</time>
      </trkpt>
      <trkpt lat="43.76469" lon="7.16898">
        <ele>410.1396484375</ele>
        <time>2012-06-17T07:17:07Z</time>
      </trkpt>
      <trkpt lat="43.76481" lon="7.16896">
        <ele>409.17834472656</ele>
        <time>2012-06-17T07:17:09Z</time>
      </trkpt>
      <trkpt lat="43.76493" lon="7.16893">
        <ele>408.21704101562</ele>
        <time>2012-06-17T07:17:11Z</time>
      </trkpt>
      <trkpt lat="43.76516" lon="7.16875">
        <ele>407.25561523438</ele>
        <time>2012-06-17T07:17:15Z</time>
      </trkpt>
      <trkpt lat="43.76534" lon="7.16867">
        <ele>406.29431152344</ele>
        <time>2012-06-17T07:17:18Z</time>
      </trkpt>
      <trkpt lat="43.76554" lon="7.16871">
        <ele>404.85229492188</ele>
        <time>2012-06-17T07:17:21Z</time>
      </trkpt>
      <trkpt lat="43.76568" lon="7.16877">
        <ele>403.89111328125</ele>
        <time>2012-06-17T07:17:23Z</time>
      </trkpt>
      <trkpt lat="43.76608" lon="7.16877">
        <ele>401.96850585938</ele>
        <time>2012-06-17T07:17:29Z</time>
      </trkpt>
      <trkpt lat="43.76621" lon="7.16877">
        <ele>401.48779296875</ele>
        <time>2012-06-17T07:17:31Z</time>
      </trkpt>
      <trkpt lat="43.76656" lon="7.16866">
        <ele>399.56506347656</ele>
        <time>2012-06-17T07:17:40Z</time>
      </trkpt>
      <trkpt lat="43.76731" lon="7.16873">
        <ele>398.60375976562</ele>
        <time>2012-06-17T07:17:53Z</time>
      </trkpt>
      <trkpt lat="43.76792" lon="7.16892">
        <ele>400.0458984375</ele>
        <time>2012-06-17T07:18:05Z</time>
      </trkpt>
      <trkpt lat="43.76811" lon="7.16908">
        <ele>398.60375976562</ele>
        <time>2012-06-17T07:18:09Z</time>
      </trkpt>
      <trkpt lat="43.76847" lon="7.16923">
        <ele>397.64245605469</ele>
        <time>2012-06-17T07:18:16Z</time>
      </trkpt>
      <trkpt lat="43.76888" lon="7.16897">
        <ele>394.75854492188</ele>
        <time>2012-06-17T07:18:25Z</time>
      </trkpt>
      <trkpt lat="43.76893" lon="7.16885">
        <ele>394.27795410156</ele>
        <time>2012-06-17T07:18:27Z</time>
      </trkpt>
      <trkpt lat="43.76923" lon="7.16885">
        <ele>391.87451171875</ele>
        <time>2012-06-17T07:18:34Z</time>
      </trkpt>
      <trkpt lat="43.76936" lon="7.16911">
        <ele>391.87451171875</ele>
        <time>2012-06-17T07:18:38Z</time>
      </trkpt>
      <trkpt lat="43.76941" lon="7.16931">
        <ele>391.87451171875</ele>
        <time>2012-06-17T07:18:41Z</time>
      </trkpt>
      <trkpt lat="43.76981" lon="7.16962">
        <ele>389.47119140625</ele>
        <time>2012-06-17T07:18:50Z</time>
      </trkpt>
      <trkpt lat="43.77006" lon="7.16977">
        <ele>388.99060058594</ele>
        <time>2012-06-17T07:18:55Z</time>
      </trkpt>
      <trkpt lat="43.77014" lon="7.16989">
        <ele>388.99060058594</ele>
        <time>2012-06-17T07:18:57Z</time>
      </trkpt>
      <trkpt lat="43.7703" lon="7.17003">
        <ele>388.99060058594</ele>
        <time>2012-06-17T07:19:01Z</time>
      </trkpt>
      <trkpt lat="43.77044" lon="7.17006">
        <ele>388.51000976562</ele>
        <time>2012-06-17T07:19:04Z</time>
      </trkpt>
      <trkpt lat="43.77112" lon="7.17055">
        <ele>388.029296875</ele>
        <time>2012-06-17T07:19:17Z</time>
      </trkpt>
      <trkpt lat="43.77118" lon="7.17057">
        <ele>388.029296875</ele>
        <time>2012-06-17T07:19:18Z</time>
      </trkpt>
      <trkpt lat="43.77181" lon="7.1706">
        <ele>386.58740234375</ele>
        <time>2012-06-17T07:19:29Z</time>
      </trkpt>
      <trkpt lat="43.77197" lon="7.17062">
        <ele>386.58740234375</ele>
        <time>2012-06-17T07:19:32Z</time>
      </trkpt>
      <trkpt lat="43.77212" lon="7.17048">
        <ele>387.06799316406</ele>
        <time>2012-06-17T07:19:36Z</time>
      </trkpt>
      <trkpt lat="43.77216" lon="7.17022">
        <ele>387.06799316406</ele>
        <time>2012-06-17T07:19:41Z</time>
      </trkpt>
      <trkpt lat="43.7723" lon="7.17002">
        <ele>387.54858398438</ele>
        <time>2012-06-17T07:19:46Z</time>
      </trkpt>
      <trkpt lat="43.77249" lon="7.17015">
        <ele>388.029296875</ele>
        <time>2012-06-17T07:19:53Z</time>
      </trkpt>
      <trkpt lat="43.77253" lon="7.17029">
        <ele>388.99060058594</ele>
        <time>2012-06-17T07:19:56Z</time>
      </trkpt>
      <trkpt lat="43.77269" lon="7.17059">
        <ele>391.87451171875</ele>
        <time>2012-06-17T07:20:05Z</time>
      </trkpt>
      <trkpt lat="43.77278" lon="7.17115">
        <ele>393.79724121094</ele>
        <time>2012-06-17T07:20:19Z</time>
      </trkpt>
      <trkpt lat="43.77302" lon="7.17181">
        <ele>397.16174316406</ele>
        <time>2012-06-17T07:20:36Z</time>
      </trkpt>
      <trkpt lat="43.77333" lon="7.17225">
        <ele>397.16174316406</ele>
        <time>2012-06-17T07:20:49Z</time>
      </trkpt>
      <trkpt lat="43.77382" lon="7.17284">
        <ele>396.20056152344</ele>
        <time>2012-06-17T07:21:05Z</time>
      </trkpt>
      <trkpt lat="43.77409" lon="7.17314">
        <ele>393.31652832031</ele>
        <time>2012-06-17T07:21:11Z</time>
      </trkpt>
      <trkpt lat="43.77453" lon="7.17379">
        <ele>393.31652832031</ele>
        <time>2012-06-17T07:21:22Z</time>
      </trkpt>
      <trkpt lat="43.77462" lon="7.17389">
        <ele>393.31652832031</ele>
        <time>2012-06-17T07:21:24Z</time>
      </trkpt>
      <trkpt lat="43.77503" lon="7.17407">
        <ele>392.35534667969</ele>
        <time>2012-06-17T07:21:32Z</time>
      </trkpt>
      <trkpt lat="43.77517" lon="7.17412">
        <ele>392.35534667969</ele>
        <time>2012-06-17T07:21:35Z</time>
      </trkpt>
      <trkpt lat="43.77538" lon="7.17433">
        <ele>392.35534667969</ele>
        <time>2012-06-17T07:21:40Z</time>
      </trkpt>
      <trkpt lat="43.77555" lon="7.17464">
        <ele>394.27795410156</ele>
        <time>2012-06-17T07:21:46Z</time>
      </trkpt>
      <trkpt lat="43.77576" lon="7.17479">
        <ele>393.79724121094</ele>
        <time>2012-06-17T07:21:51Z</time>
      </trkpt>
      <trkpt lat="43.77615" lon="7.17498">
        <ele>394.27795410156</ele>
        <time>2012-06-17T07:21:59Z</time>
      </trkpt>
      <trkpt lat="43.77627" lon="7.17512">
        <ele>394.75854492188</ele>
        <time>2012-06-17T07:22:03Z</time>
      </trkpt>
      <trkpt lat="43.77639" lon="7.17534">
        <ele>395.23913574219</ele>
        <time>2012-06-17T07:22:08Z</time>
      </trkpt>
      <trkpt lat="43.77657" lon="7.17553">
        <ele>396.20056152344</ele>
        <time>2012-06-17T07:22:13Z</time>
      </trkpt>
      <trkpt lat="43.77691" lon="7.17564">
        <ele>395.71984863281</ele>
        <time>2012-06-17T07:22:25Z</time>
      </trkpt>
      <trkpt lat="43.77694" lon="7.17565">
        <ele>395.71984863281</ele>
        <time>2012-06-17T07:22:52Z</time>
      </trkpt>
      <trkpt lat="43.77716" lon="7.17571">
        <ele>395.23913574219</ele>
        <time>2012-06-17T07:22:59Z</time>
      </trkpt>
      <trkpt lat="43.77725" lon="7.17573">
        <ele>394.75854492188</ele>
        <time>2012-06-17T07:23:01Z</time>
      </trkpt>
      <trkpt lat="43.77784" lon="7.17573">
        <ele>395.23913574219</ele>
        <time>2012-06-17T07:23:13Z</time>
      </trkpt>
      <trkpt lat="43.77875" lon="7.17589">
        <ele>397.64245605469</ele>
        <time>2012-06-17T07:23:32Z</time>
      </trkpt>
      <trkpt lat="43.77906" lon="7.17598">
        <ele>398.60375976562</ele>
        <time>2012-06-17T07:23:39Z</time>
      </trkpt>
      <trkpt lat="43.77982" lon="7.17615">
        <ele>402.44909667969</ele>
        <time>2012-06-17T07:23:57Z</time>
      </trkpt>
      <trkpt lat="43.78021" lon="7.17616">
        <ele>405.81372070312</ele>
        <time>2012-06-17T07:24:09Z</time>
      </trkpt>
      <trkpt lat="43.78025" lon="7.17592">
        <ele>405.3330078125</ele>
        <time>2012-06-17T07:24:16Z</time>
      </trkpt>
      <trkpt lat="43.7802" lon="7.17556">
        <ele>401.00708007812</ele>
        <time>2012-06-17T07:24:21Z</time>
      </trkpt>
      <trkpt lat="43.78017" lon="7.17522">
        <ele>398.60375976562</ele>
        <time>2012-06-17T07:24:25Z</time>
      </trkpt>
      <trkpt lat="43.78028" lon="7.17461">
        <ele>394.27795410156</ele>
        <time>2012-06-17T07:24:31Z</time>
      </trkpt>
      <trkpt lat="43.78038" lon="7.17444">
        <ele>394.75854492188</ele>
        <time>2012-06-17T07:24:33Z</time>
      </trkpt>
      <trkpt lat="43.78047" lon="7.17429">
        <ele>395.23913574219</ele>
        <time>2012-06-17T07:24:35Z</time>
      </trkpt>
      <trkpt lat="43.78102" lon="7.1739">
        <ele>394.27795410156</ele>
        <time>2012-06-17T07:24:45Z</time>
      </trkpt>
      <trkpt lat="43.78129" lon="7.17372">
        <ele>390.4326171875</ele>
        <time>2012-06-17T07:24:49Z</time>
      </trkpt>
      <trkpt lat="43.7815" lon="7.17356">
        <ele>388.99060058594</ele>
        <time>2012-06-17T07:24:52Z</time>
      </trkpt>
      <trkpt lat="43.78194" lon="7.17321">
        <ele>392.35534667969</ele>
        <time>2012-06-17T07:25:00Z</time>
      </trkpt>
      <trkpt lat="43.78217" lon="7.17306">
        <ele>392.8359375</ele>
        <time>2012-06-17T07:25:05Z</time>
      </trkpt>
      <trkpt lat="43.78246" lon="7.17306">
        <ele>393.31652832031</ele>
        <time>2012-06-17T07:25:11Z</time>
      </trkpt>
      <trkpt lat="43.78326" lon="7.17388">
        <ele>393.31652832031</ele>
        <time>2012-06-17T07:25:31Z</time>
      </trkpt>
      <trkpt lat="43.78377" lon="7.17433">
        <ele>389.95190429688</ele>
        <time>2012-06-17T07:25:42Z</time>
      </trkpt>
      <trkpt lat="43.78397" lon="7.17447">
        <ele>387.54858398438</ele>
        <time>2012-06-17T07:25:45Z</time>
      </trkpt>
      <trkpt lat="43.78421" lon="7.17465">
        <ele>384.18408203125</ele>
        <time>2012-06-17T07:25:48Z</time>
      </trkpt>
      <trkpt lat="43.7853" lon="7.17516">
        <ele>383.70324707031</ele>
        <time>2012-06-17T07:26:02Z</time>
      </trkpt>
      <trkpt lat="43.78547" lon="7.17521">
        <ele>383.70324707031</ele>
        <time>2012-06-17T07:26:05Z</time>
      </trkpt>
      <trkpt lat="43.78564" lon="7.17524">
        <ele>383.70324707031</ele>
        <time>2012-06-17T07:26:08Z</time>
      </trkpt>
      <trkpt lat="43.7858" lon="7.17547">
        <ele>383.22265625</ele>
        <time>2012-06-17T07:26:13Z</time>
      </trkpt>
      <trkpt lat="43.78588" lon="7.17617">
        <ele>383.70324707031</ele>
        <time>2012-06-17T07:26:24Z</time>
      </trkpt>
      <trkpt lat="43.78591" lon="7.1763">
        <ele>383.22265625</ele>
        <time>2012-06-17T07:26:26Z</time>
      </trkpt>
      <trkpt lat="43.78641" lon="7.17713">
        <ele>380.33874511719</ele>
        <time>2012-06-17T07:26:40Z</time>
      </trkpt>
      <trkpt lat="43.78672" lon="7.17756">
        <ele>376.97424316406</ele>
        <time>2012-06-17T07:26:46Z</time>
      </trkpt>
      <trkpt lat="43.78716" lon="7.17819">
        <ele>374.09008789062</ele>
        <time>2012-06-17T07:26:54Z</time>
      </trkpt>
      <trkpt lat="43.78727" lon="7.17835">
        <ele>373.60949707031</ele>
        <time>2012-06-17T07:26:56Z</time>
      </trkpt>
      <trkpt lat="43.7874" lon="7.17883">
        <ele>372.64819335938</ele>
        <time>2012-06-17T07:27:01Z</time>
      </trkpt>
      <trkpt lat="43.78742" lon="7.1795">
        <ele>368.322265625</ele>
        <time>2012-06-17T07:27:07Z</time>
      </trkpt>
      <trkpt lat="43.78751" lon="7.18003">
        <ele>369.28369140625</ele>
        <time>2012-06-17T07:27:12Z</time>
      </trkpt>
      <trkpt lat="43.78775" lon="7.18056">
        <ele>372.64819335938</ele>
        <time>2012-06-17T07:27:20Z</time>
      </trkpt>
      <trkpt lat="43.78794" lon="7.18096">
        <ele>374.57080078125</ele>
        <time>2012-06-17T07:27:27Z</time>
      </trkpt>
      <trkpt lat="43.78817" lon="7.18155">
        <ele>377.93542480469</ele>
        <time>2012-06-17T07:27:39Z</time>
      </trkpt>
      <trkpt lat="43.78849" lon="7.18222">
        <ele>379.85803222656</ele>
        <time>2012-06-17T07:27:54Z</time>
      </trkpt>
      <trkpt lat="43.78868" lon="7.18255">
        <ele>379.37744140625</ele>
        <time>2012-06-17T07:28:00Z</time>
      </trkpt>
      <trkpt lat="43.78883" lon="7.1827">
        <ele>379.85803222656</ele>
        <time>2012-06-17T07:28:04Z</time>
      </trkpt>
      <trkpt lat="43.78891" lon="7.18274">
        <ele>379.85803222656</ele>
        <time>2012-06-17T07:28:06Z</time>
      </trkpt>
      <trkpt lat="43.78933" lon="7.18332">
        <ele>377.93542480469</ele>
        <time>2012-06-17T07:28:16Z</time>
      </trkpt>
      <trkpt lat="43.78955" lon="7.18351">
        <ele>378.41613769531</ele>
        <time>2012-06-17T07:28:20Z</time>
      </trkpt>
      <trkpt lat="43.78978" lon="7.18363">
        <ele>380.33874511719</ele>
        <time>2012-06-17T07:28:24Z</time>
      </trkpt>
      <trkpt lat="43.79006" lon="7.18372">
        <ele>378.41613769531</ele>
        <time>2012-06-17T07:28:29Z</time>
      </trkpt>
      <trkpt lat="43.79052" lon="7.18389">
        <ele>376.01281738281</ele>
        <time>2012-06-17T07:28:36Z</time>
      </trkpt>
      <trkpt lat="43.79127" lon="7.1843">
        <ele>374.57080078125</ele>
        <time>2012-06-17T07:28:49Z</time>
      </trkpt>
      <trkpt lat="43.79144" lon="7.18436">
        <ele>374.09008789062</ele>
        <time>2012-06-17T07:28:52Z</time>
      </trkpt>
      <trkpt lat="43.79155" lon="7.18438">
        <ele>375.53210449219</ele>
        <time>2012-06-17T07:28:54Z</time>
      </trkpt>
      <trkpt lat="43.79198" lon="7.18427">
        <ele>379.37744140625</ele>
        <time>2012-06-17T07:29:04Z</time>
      </trkpt>
      <trkpt lat="43.79238" lon="7.18419">
        <ele>382.74206542969</ele>
        <time>2012-06-17T07:29:14Z</time>
      </trkpt>
      <trkpt lat="43.79282" lon="7.18394">
        <ele>385.6259765625</ele>
        <time>2012-06-17T07:29:28Z</time>
      </trkpt>
      <trkpt lat="43.79323" lon="7.18372">
        <ele>388.99060058594</ele>
        <time>2012-06-17T07:29:44Z</time>
      </trkpt>
      <trkpt lat="43.79352" lon="7.18353">
        <ele>392.35534667969</ele>
        <time>2012-06-17T07:29:57Z</time>
      </trkpt>
      <trkpt lat="43.79383" lon="7.18336">
        <ele>395.23913574219</ele>
        <time>2012-06-17T07:30:11Z</time>
      </trkpt>
      <trkpt lat="43.79416" lon="7.18296">
        <ele>397.64245605469</ele>
        <time>2012-06-17T07:30:29Z</time>
      </trkpt>
      <trkpt lat="43.79442" lon="7.18273">
        <ele>400.52648925781</ele>
        <time>2012-06-17T07:30:45Z</time>
      </trkpt>
      <trkpt lat="43.7947" lon="7.18246">
        <ele>403.89111328125</ele>
        <time>2012-06-17T07:31:02Z</time>
      </trkpt>
      <trkpt lat="43.79505" lon="7.18214">
        <ele>406.29431152344</ele>
        <time>2012-06-17T07:31:20Z</time>
      </trkpt>
      <trkpt lat="43.79514" lon="7.18207">
        <ele>406.77490234375</ele>
        <time>2012-06-17T07:31:25Z</time>
      </trkpt>
      <trkpt lat="43.79548" lon="7.18183">
        <ele>409.65905761719</ele>
        <time>2012-06-17T07:31:42Z</time>
      </trkpt>
      <trkpt lat="43.7959" lon="7.1815">
        <ele>413.02355957031</ele>
        <time>2012-06-17T07:32:02Z</time>
      </trkpt>
      <trkpt lat="43.79628" lon="7.18143">
        <ele>415.90747070312</ele>
        <time>2012-06-17T07:32:18Z</time>
      </trkpt>
      <trkpt lat="43.79662" lon="7.18151">
        <ele>418.31079101562</ele>
        <time>2012-06-17T07:32:32Z</time>
      </trkpt>
      <trkpt lat="43.79708" lon="7.18163">
        <ele>421.19482421875</ele>
        <time>2012-06-17T07:32:51Z</time>
      </trkpt>
      <trkpt lat="43.79742" lon="7.1817">
        <ele>424.55944824219</ele>
        <time>2012-06-17T07:33:07Z</time>
      </trkpt>
      <trkpt lat="43.79771" lon="7.18149">
        <ele>427.443359375</ele>
        <time>2012-06-17T07:33:23Z</time>
      </trkpt>
      <trkpt lat="43.79778" lon="7.18101">
        <ele>430.32727050781</ele>
        <time>2012-06-17T07:33:40Z</time>
      </trkpt>
      <trkpt lat="43.79791" lon="7.18068">
        <ele>431.76916503906</ele>
        <time>2012-06-17T07:33:55Z</time>
      </trkpt>
      <trkpt lat="43.79831" lon="7.18076">
        <ele>434.17260742188</ele>
        <time>2012-06-17T07:34:13Z</time>
      </trkpt>
      <trkpt lat="43.79864" lon="7.18093">
        <ele>437.05651855469</ele>
        <time>2012-06-17T07:34:29Z</time>
      </trkpt>
      <trkpt lat="43.79885" lon="7.18129">
        <ele>440.42126464844</ele>
        <time>2012-06-17T07:34:44Z</time>
      </trkpt>
      <trkpt lat="43.79921" lon="7.18167">
        <ele>443.30505371094</ele>
        <time>2012-06-17T07:35:05Z</time>
      </trkpt>
      <trkpt lat="43.79938" lon="7.18133">
        <ele>446.18908691406</ele>
        <time>2012-06-17T07:35:20Z</time>
      </trkpt>
      <trkpt lat="43.79952" lon="7.1808">
        <ele>448.59240722656</ele>
        <time>2012-06-17T07:35:39Z</time>
      </trkpt>
      <trkpt lat="43.79978" lon="7.18022">
        <ele>451.47631835938</ele>
        <time>2012-06-17T07:36:01Z</time>
      </trkpt>
      <trkpt lat="43.80007" lon="7.17994">
        <ele>454.8408203125</ele>
        <time>2012-06-17T07:36:17Z</time>
      </trkpt>
      <trkpt lat="43.80039" lon="7.17979">
        <ele>457.72497558594</ele>
        <time>2012-06-17T07:36:33Z</time>
      </trkpt>
      <trkpt lat="43.80082" lon="7.17965">
        <ele>460.60876464844</ele>
        <time>2012-06-17T07:36:53Z</time>
      </trkpt>
      <trkpt lat="43.80121" lon="7.17941">
        <ele>463.97338867188</ele>
        <time>2012-06-17T07:37:12Z</time>
      </trkpt>
      <trkpt lat="43.80134" lon="7.1792">
        <ele>465.41552734375</ele>
        <time>2012-06-17T07:37:21Z</time>
      </trkpt>
      <trkpt lat="43.80133" lon="7.17892">
        <ele>466.37670898438</ele>
        <time>2012-06-17T07:37:30Z</time>
      </trkpt>
      <trkpt lat="43.80132" lon="7.17842">
        <ele>465.89611816406</ele>
        <time>2012-06-17T07:37:43Z</time>
      </trkpt>
      <trkpt lat="43.8014" lon="7.17779">
        <ele>464.93481445312</ele>
        <time>2012-06-17T07:37:56Z</time>
      </trkpt>
      <trkpt lat="43.80141" lon="7.17762">
        <ele>464.93481445312</ele>
        <time>2012-06-17T07:37:59Z</time>
      </trkpt>
      <trkpt lat="43.80171" lon="7.17653">
        <ele>464.4541015625</ele>
        <time>2012-06-17T07:38:17Z</time>
      </trkpt>
      <trkpt lat="43.80201" lon="7.17603">
        <ele>463.97338867188</ele>
        <time>2012-06-17T07:38:27Z</time>
      </trkpt>
      <trkpt lat="43.8024" lon="7.17499">
        <ele>462.53137207031</ele>
        <time>2012-06-17T07:38:44Z</time>
      </trkpt>
      <trkpt lat="43.80292" lon="7.1739">
        <ele>461.08947753906</ele>
        <time>2012-06-17T07:39:01Z</time>
      </trkpt>
      <trkpt lat="43.803" lon="7.17363">
        <ele>461.57019042969</ele>
        <time>2012-06-17T07:39:05Z</time>
      </trkpt>
      <trkpt lat="43.80312" lon="7.17341">
        <ele>460.60876464844</ele>
        <time>2012-06-17T07:39:10Z</time>
      </trkpt>
      <trkpt lat="43.80331" lon="7.17334">
        <ele>460.12817382812</ele>
        <time>2012-06-17T07:39:14Z</time>
      </trkpt>
      <trkpt lat="43.80348" lon="7.17321">
        <ele>459.64758300781</ele>
        <time>2012-06-17T07:39:18Z</time>
      </trkpt>
      <trkpt lat="43.80362" lon="7.17303">
        <ele>459.16687011719</ele>
        <time>2012-06-17T07:39:22Z</time>
      </trkpt>
      <trkpt lat="43.80382" lon="7.17254">
        <ele>458.68615722656</ele>
        <time>2012-06-17T07:39:30Z</time>
      </trkpt>
      <trkpt lat="43.80407" lon="7.17148">
        <ele>458.20556640625</ele>
        <time>2012-06-17T07:39:46Z</time>
      </trkpt>
      <trkpt lat="43.80419" lon="7.17081">
        <ele>457.24426269531</ele>
        <time>2012-06-17T07:39:56Z</time>
      </trkpt>
      <trkpt lat="43.80434" lon="7.17051">
        <ele>456.76354980469</ele>
        <time>2012-06-17T07:40:01Z</time>
      </trkpt>
      <trkpt lat="43.80483" lon="7.16975">
        <ele>454.8408203125</ele>
        <time>2012-06-17T07:40:15Z</time>
      </trkpt>
      <trkpt lat="43.8049" lon="7.16943">
        <ele>453.87963867188</ele>
        <time>2012-06-17T07:40:19Z</time>
      </trkpt>
      <trkpt lat="43.80492" lon="7.16927">
        <ele>453.87963867188</ele>
        <time>2012-06-17T07:40:21Z</time>
      </trkpt>
      <trkpt lat="43.80511" lon="7.16865">
        <ele>453.39892578125</ele>
        <time>2012-06-17T07:40:30Z</time>
      </trkpt>
      <trkpt lat="43.80522" lon="7.16843">
        <ele>452.91821289062</ele>
        <time>2012-06-17T07:40:34Z</time>
      </trkpt>
      <trkpt lat="43.80532" lon="7.16821">
        <ele>452.91821289062</ele>
        <time>2012-06-17T07:40:38Z</time>
      </trkpt>
      <trkpt lat="43.80558" lon="7.16704">
        <ele>450.03442382812</ele>
        <time>2012-06-17T07:40:54Z</time>
      </trkpt>
      <trkpt lat="43.8057" lon="7.16673">
        <ele>449.07299804688</ele>
        <time>2012-06-17T07:40:59Z</time>
      </trkpt>
      <trkpt lat="43.80597" lon="7.1666">
        <ele>448.59240722656</ele>
        <time>2012-06-17T07:41:05Z</time>
      </trkpt>
      <trkpt lat="43.80618" lon="7.16668">
        <ele>449.07299804688</ele>
        <time>2012-06-17T07:41:09Z</time>
      </trkpt>
      <trkpt lat="43.80651" lon="7.16664">
        <ele>449.07299804688</ele>
        <time>2012-06-17T07:41:15Z</time>
      </trkpt>
      <trkpt lat="43.8068" lon="7.16649">
        <ele>449.5537109375</ele>
        <time>2012-06-17T07:41:21Z</time>
      </trkpt>
      <trkpt lat="43.80716" lon="7.1666">
        <ele>450.51501464844</ele>
        <time>2012-06-17T07:41:29Z</time>
      </trkpt>
      <trkpt lat="43.80746" lon="7.16699">
        <ele>451.47631835938</ele>
        <time>2012-06-17T07:41:38Z</time>
      </trkpt>
      <trkpt lat="43.80785" lon="7.16731">
        <ele>454.8408203125</ele>
        <time>2012-06-17T07:41:50Z</time>
      </trkpt>
      <trkpt lat="43.80788" lon="7.16733">
        <ele>455.32153320312</ele>
        <time>2012-06-17T07:41:51Z</time>
      </trkpt>
      <trkpt lat="43.80836" lon="7.16768">
        <ele>458.20556640625</ele>
        <time>2012-06-17T07:42:06Z</time>
      </trkpt>
      <trkpt lat="43.80886" lon="7.16824">
        <ele>460.12817382812</ele>
        <time>2012-06-17T07:42:23Z</time>
      </trkpt>
      <trkpt lat="43.80922" lon="7.16856">
        <ele>462.05078125</ele>
        <time>2012-06-17T07:42:36Z</time>
      </trkpt>
      <trkpt lat="43.80956" lon="7.16818">
        <ele>462.53137207031</ele>
        <time>2012-06-17T07:42:48Z</time>
      </trkpt>
      <trkpt lat="43.81014" lon="7.16748">
        <ele>464.4541015625</ele>
        <time>2012-06-17T07:43:08Z</time>
      </trkpt>
      <trkpt lat="43.81042" lon="7.167">
        <ele>467.81872558594</ele>
        <time>2012-06-17T07:43:23Z</time>
      </trkpt>
      <trkpt lat="43.8106" lon="7.16642">
        <ele>470.22192382812</ele>
        <time>2012-06-17T07:43:39Z</time>
      </trkpt>
      <trkpt lat="43.81091" lon="7.16608">
        <ele>471.66394042969</ele>
        <time>2012-06-17T07:43:53Z</time>
      </trkpt>
      <trkpt lat="43.81113" lon="7.16598">
        <ele>470.70263671875</ele>
        <time>2012-06-17T07:43:59Z</time>
      </trkpt>
      <trkpt lat="43.81184" lon="7.16575">
        <ele>471.18334960938</ele>
        <time>2012-06-17T07:44:14Z</time>
      </trkpt>
      <trkpt lat="43.81229" lon="7.16553">
        <ele>474.06726074219</ele>
        <time>2012-06-17T07:44:27Z</time>
      </trkpt>
      <trkpt lat="43.81267" lon="7.16568">
        <ele>476.95129394531</ele>
        <time>2012-06-17T07:44:41Z</time>
      </trkpt>
      <trkpt lat="43.81292" lon="7.16562">
        <ele>480.31591796875</ele>
        <time>2012-06-17T07:44:52Z</time>
      </trkpt>
      <trkpt lat="43.81314" lon="7.16548">
        <ele>483.19982910156</ele>
        <time>2012-06-17T07:45:04Z</time>
      </trkpt>
      <trkpt lat="43.81355" lon="7.1653">
        <ele>486.08374023438</ele>
        <time>2012-06-17T07:45:24Z</time>
      </trkpt>
      <trkpt lat="43.81394" lon="7.16559">
        <ele>488.9677734375</ele>
        <time>2012-06-17T07:45:43Z</time>
      </trkpt>
      <trkpt lat="43.81444" lon="7.16562">
        <ele>490.89038085938</ele>
        <time>2012-06-17T07:46:03Z</time>
      </trkpt>
      <trkpt lat="43.81498" lon="7.16532">
        <ele>493.77429199219</ele>
        <time>2012-06-17T07:46:26Z</time>
      </trkpt>
      <trkpt lat="43.81528" lon="7.16539">
        <ele>495.21618652344</ele>
        <time>2012-06-17T07:46:39Z</time>
      </trkpt>
      <trkpt lat="43.81571" lon="7.1655">
        <ele>497.61962890625</ele>
        <time>2012-06-17T07:46:57Z</time>
      </trkpt>
      <trkpt lat="43.8162" lon="7.16543">
        <ele>500.02294921875</ele>
        <time>2012-06-17T07:47:17Z</time>
      </trkpt>
      <trkpt lat="43.81666" lon="7.16544">
        <ele>502.42614746094</ele>
        <time>2012-06-17T07:47:36Z</time>
      </trkpt>
      <trkpt lat="43.81667" lon="7.16545">
        <ele>502.90673828125</ele>
        <time>2012-06-17T07:47:50Z</time>
      </trkpt>
      <trkpt lat="43.81667" lon="7.16544">
        <ele>503.38745117188</ele>
        <time>2012-06-17T07:50:01Z</time>
      </trkpt>
      <trkpt lat="43.81683" lon="7.16498">
        <ele>504.82946777344</ele>
        <time>2012-06-17T07:50:17Z</time>
      </trkpt>
      <trkpt lat="43.81702" lon="7.1644">
        <ele>507.23278808594</ele>
        <time>2012-06-17T07:50:37Z</time>
      </trkpt>
      <trkpt lat="43.8173" lon="7.16407">
        <ele>507.71350097656</ele>
        <time>2012-06-17T07:50:49Z</time>
      </trkpt>
      <trkpt lat="43.81723" lon="7.16402">
        <ele>508.19409179688</ele>
        <time>2012-06-17T07:50:55Z</time>
      </trkpt>
      <trkpt lat="43.81706" lon="7.16413">
        <ele>510.59729003906</ele>
        <time>2012-06-17T07:51:06Z</time>
      </trkpt>
      <trkpt lat="43.81704" lon="7.16404">
        <ele>511.55871582031</ele>
        <time>2012-06-17T07:51:12Z</time>
      </trkpt>
      <trkpt lat="43.81711" lon="7.16384">
        <ele>513.96203613281</ele>
        <time>2012-06-17T07:51:23Z</time>
      </trkpt>
      <trkpt lat="43.81706" lon="7.1638">
        <ele>514.44262695312</ele>
        <time>2012-06-17T07:51:27Z</time>
      </trkpt>
      <trkpt lat="43.81681" lon="7.16391">
        <ele>517.80725097656</ele>
        <time>2012-06-17T07:51:44Z</time>
      </trkpt>
      <trkpt lat="43.81671" lon="7.16402">
        <ele>521.17199707031</ele>
        <time>2012-06-17T07:51:52Z</time>
      </trkpt>
      <trkpt lat="43.81664" lon="7.16416">
        <ele>523.5751953125</ele>
        <time>2012-06-17T07:51:59Z</time>
      </trkpt>
      <trkpt lat="43.81654" lon="7.1641">
        <ele>525.49780273438</ele>
        <time>2012-06-17T07:52:08Z</time>
      </trkpt>
      <trkpt lat="43.81653" lon="7.16383">
        <ele>528.86254882812</ele>
        <time>2012-06-17T07:52:22Z</time>
      </trkpt>
      <trkpt lat="43.81657" lon="7.1636">
        <ele>532.22705078125</ele>
        <time>2012-06-17T07:52:33Z</time>
      </trkpt>
      <trkpt lat="43.81654" lon="7.16341">
        <ele>535.11096191406</ele>
        <time>2012-06-17T07:52:43Z</time>
      </trkpt>
      <trkpt lat="43.81654" lon="7.16336">
        <ele>535.59155273438</ele>
        <time>2012-06-17T07:52:46Z</time>
      </trkpt>
      <trkpt lat="43.81661" lon="7.16323">
        <ele>535.59155273438</ele>
        <time>2012-06-17T07:52:54Z</time>
      </trkpt>
      <trkpt lat="43.81678" lon="7.16316">
        <ele>537.03369140625</ele>
        <time>2012-06-17T07:53:08Z</time>
      </trkpt>
      <trkpt lat="43.81681" lon="7.16317">
        <ele>537.03369140625</ele>
        <time>2012-06-17T07:53:11Z</time>
      </trkpt>
      <trkpt lat="43.81703" lon="7.16284">
        <ele>538.95629882812</ele>
        <time>2012-06-17T07:53:35Z</time>
      </trkpt>
      <trkpt lat="43.81706" lon="7.16256">
        <ele>542.32092285156</ele>
        <time>2012-06-17T07:53:48Z</time>
      </trkpt>
      <trkpt lat="43.81706" lon="7.16237">
        <ele>545.20483398438</ele>
        <time>2012-06-17T07:53:57Z</time>
      </trkpt>
      <trkpt lat="43.81711" lon="7.16217">
        <ele>548.5693359375</ele>
        <time>2012-06-17T07:54:07Z</time>
      </trkpt>
      <trkpt lat="43.81719" lon="7.1619">
        <ele>551.45336914062</ele>
        <time>2012-06-17T07:54:21Z</time>
      </trkpt>
      <trkpt lat="43.81713" lon="7.16152">
        <ele>554.33740234375</ele>
        <time>2012-06-17T07:54:40Z</time>
      </trkpt>
      <trkpt lat="43.8171" lon="7.16117">
        <ele>557.7021484375</ele>
        <time>2012-06-17T07:54:57Z</time>
      </trkpt>
      <trkpt lat="43.81704" lon="7.16082">
        <ele>560.5859375</ele>
        <time>2012-06-17T07:55:14Z</time>
      </trkpt>
      <trkpt lat="43.81696" lon="7.16058">
        <ele>563.95043945312</ele>
        <time>2012-06-17T07:55:27Z</time>
      </trkpt>
      <trkpt lat="43.81692" lon="7.1604">
        <ele>566.35375976562</ele>
        <time>2012-06-17T07:55:36Z</time>
      </trkpt>
      <trkpt lat="43.81685" lon="7.16048">
        <ele>567.79565429688</ele>
        <time>2012-06-17T07:55:45Z</time>
      </trkpt>
      <trkpt lat="43.81686" lon="7.16059">
        <ele>568.2763671875</ele>
        <time>2012-06-17T07:55:50Z</time>
      </trkpt>
      <trkpt lat="43.81677" lon="7.16057">
        <ele>569.71850585938</ele>
        <time>2012-06-17T07:55:58Z</time>
      </trkpt>
      <trkpt lat="43.81671" lon="7.16019">
        <ele>573.08325195312</ele>
        <time>2012-06-17T07:56:17Z</time>
      </trkpt>
      <trkpt lat="43.81668" lon="7.15992">
        <ele>575.96704101562</ele>
        <time>2012-06-17T07:56:30Z</time>
      </trkpt>
      <trkpt lat="43.81658" lon="7.15965">
        <ele>579.33154296875</ele>
        <time>2012-06-17T07:56:45Z</time>
      </trkpt>
      <trkpt lat="43.81643" lon="7.15945">
        <ele>582.6962890625</ele>
        <time>2012-06-17T07:56:58Z</time>
      </trkpt>
      <trkpt lat="43.81633" lon="7.15923">
        <ele>585.580078125</ele>
        <time>2012-06-17T07:57:11Z</time>
      </trkpt>
      <trkpt lat="43.81619" lon="7.15887">
        <ele>587.50268554688</ele>
        <time>2012-06-17T07:57:31Z</time>
      </trkpt>
      <trkpt lat="43.81601" lon="7.15842">
        <ele>588.94506835938</ele>
        <time>2012-06-17T07:57:51Z</time>
      </trkpt>
      <trkpt lat="43.81574" lon="7.158">
        <ele>591.34814453125</ele>
        <time>2012-06-17T07:58:09Z</time>
      </trkpt>
      <trkpt lat="43.81535" lon="7.15777">
        <ele>594.23217773438</ele>
        <time>2012-06-17T07:58:31Z</time>
      </trkpt>
      <trkpt lat="43.81526" lon="7.15767">
        <ele>596.15478515625</ele>
        <time>2012-06-17T07:58:40Z</time>
      </trkpt>
      <trkpt lat="43.81526" lon="7.15762">
        <ele>596.63549804688</ele>
        <time>2012-06-17T07:58:43Z</time>
      </trkpt>
      <trkpt lat="43.81514" lon="7.15741">
        <ele>600</ele>
        <time>2012-06-17T07:58:55Z</time>
      </trkpt>
      <trkpt lat="43.81504" lon="7.1572">
        <ele>603.36450195312</ele>
        <time>2012-06-17T07:59:05Z</time>
      </trkpt>
      <trkpt lat="43.81497" lon="7.15697">
        <ele>606.72924804688</ele>
        <time>2012-06-17T07:59:16Z</time>
      </trkpt>
      <trkpt lat="43.81488" lon="7.15672">
        <ele>609.61328125</ele>
        <time>2012-06-17T07:59:30Z</time>
      </trkpt>
      <trkpt lat="43.81465" lon="7.15636">
        <ele>611.53588867188</ele>
        <time>2012-06-17T07:59:53Z</time>
      </trkpt>
      <trkpt lat="43.81445" lon="7.15601">
        <ele>614.900390625</ele>
        <time>2012-06-17T08:00:15Z</time>
      </trkpt>
      <trkpt lat="43.81439" lon="7.15581">
        <ele>616.34228515625</ele>
        <time>2012-06-17T08:00:33Z</time>
      </trkpt>
      <trkpt lat="43.81439" lon="7.15582">
        <ele>615.86181640625</ele>
        <time>2012-06-17T08:02:20Z</time>
      </trkpt>
      <trkpt lat="43.81441" lon="7.15583">
        <ele>617.7841796875</ele>
        <time>2012-06-17T08:10:07Z</time>
      </trkpt>
      <trkpt lat="43.81448" lon="7.15574">
        <ele>618.26489257812</ele>
        <time>2012-06-17T08:10:15Z</time>
      </trkpt>
      <trkpt lat="43.81446" lon="7.15555">
        <ele>621.62963867188</ele>
        <time>2012-06-17T08:10:25Z</time>
      </trkpt>
      <trkpt lat="43.81445" lon="7.15552">
        <ele>622.59106445312</ele>
        <time>2012-06-17T08:10:27Z</time>
      </trkpt>
      <trkpt lat="43.81442" lon="7.15535">
        <ele>625.47485351562</ele>
        <time>2012-06-17T08:10:36Z</time>
      </trkpt>
      <trkpt lat="43.81443" lon="7.15518">
        <ele>628.83959960938</ele>
        <time>2012-06-17T08:10:45Z</time>
      </trkpt>
      <trkpt lat="43.81445" lon="7.15502">
        <ele>631.72338867188</ele>
        <time>2012-06-17T08:10:54Z</time>
      </trkpt>
      <trkpt lat="43.81447" lon="7.15485">
        <ele>635.08813476562</ele>
        <time>2012-06-17T08:11:03Z</time>
      </trkpt>
      <trkpt lat="43.8145" lon="7.15466">
        <ele>637.97216796875</ele>
        <time>2012-06-17T08:11:15Z</time>
      </trkpt>
      <trkpt lat="43.81449" lon="7.15448">
        <ele>640.37548828125</ele>
        <time>2012-06-17T08:11:40Z</time>
      </trkpt>
      <trkpt lat="43.81445" lon="7.15429">
        <ele>642.77880859375</ele>
        <time>2012-06-17T08:12:12Z</time>
      </trkpt>
      <trkpt lat="43.81444" lon="7.15405">
        <ele>645.66259765625</ele>
        <time>2012-06-17T08:12:26Z</time>
      </trkpt>
      <trkpt lat="43.81445" lon="7.1539">
        <ele>647.58520507812</ele>
        <time>2012-06-17T08:12:35Z</time>
      </trkpt>
      <trkpt lat="43.81452" lon="7.1536">
        <ele>650.94970703125</ele>
        <time>2012-06-17T08:12:52Z</time>
      </trkpt>
      <trkpt lat="43.81458" lon="7.15332">
        <ele>653.833984375</ele>
        <time>2012-06-17T08:13:09Z</time>
      </trkpt>
      <trkpt lat="43.81457" lon="7.15294">
        <ele>657.19848632812</ele>
        <time>2012-06-17T08:13:29Z</time>
      </trkpt>
      <trkpt lat="43.81464" lon="7.15264">
        <ele>660.56298828125</ele>
        <time>2012-06-17T08:13:46Z</time>
      </trkpt>
      <trkpt lat="43.81467" lon="7.15254">
        <ele>661.04370117188</ele>
        <time>2012-06-17T08:13:52Z</time>
      </trkpt>
      <trkpt lat="43.81465" lon="7.15249">
        <ele>661.04370117188</ele>
        <time>2012-06-17T08:13:55Z</time>
      </trkpt>
      <trkpt lat="43.81463" lon="7.15241">
        <ele>661.04370117188</ele>
        <time>2012-06-17T08:13:58Z</time>
      </trkpt>
      <trkpt lat="43.81455" lon="7.1523">
        <ele>661.5244140625</ele>
        <time>2012-06-17T08:14:14Z</time>
      </trkpt>
      <trkpt lat="43.81454" lon="7.15218">
        <ele>663.44702148438</ele>
        <time>2012-06-17T08:14:32Z</time>
      </trkpt>
      <trkpt lat="43.81454" lon="7.15218">
        <ele>663.44702148438</ele>
        <time>2012-06-17T08:14:42Z</time>
      </trkpt>
      <trkpt lat="43.81456" lon="7.15212">
        <ele>663.92749023438</ele>
        <time>2012-06-17T08:14:46Z</time>
      </trkpt>
      <trkpt lat="43.81456" lon="7.15168">
        <ele>665.36962890625</ele>
        <time>2012-06-17T08:15:05Z</time>
      </trkpt>
      <trkpt lat="43.81462" lon="7.15105">
        <ele>666.8115234375</ele>
        <time>2012-06-17T08:15:26Z</time>
      </trkpt>
      <trkpt lat="43.81481" lon="7.15052">
        <ele>667.77270507812</ele>
        <time>2012-06-17T08:15:41Z</time>
      </trkpt>
      <trkpt lat="43.81483" lon="7.15048">
        <ele>667.77270507812</ele>
        <time>2012-06-17T08:15:42Z</time>
      </trkpt>
      <trkpt lat="43.81488" lon="7.15019">
        <ele>668.734375</ele>
        <time>2012-06-17T08:15:51Z</time>
      </trkpt>
      <trkpt lat="43.81501" lon="7.1499">
        <ele>667.29223632812</ele>
        <time>2012-06-17T08:16:00Z</time>
      </trkpt>
      <trkpt lat="43.81495" lon="7.1494">
        <ele>664.408203125</ele>
        <time>2012-06-17T08:16:07Z</time>
      </trkpt>
      <trkpt lat="43.81485" lon="7.14867">
        <ele>664.88891601562</ele>
        <time>2012-06-17T08:16:19Z</time>
      </trkpt>
      <trkpt lat="43.8148" lon="7.14835">
        <ele>666.33081054688</ele>
        <time>2012-06-17T08:16:28Z</time>
      </trkpt>
      <trkpt lat="43.81479" lon="7.14819">
        <ele>667.77270507812</ele>
        <time>2012-06-17T08:16:33Z</time>
      </trkpt>
      <trkpt lat="43.81466" lon="7.14749">
        <ele>669.69580078125</ele>
        <time>2012-06-17T08:16:55Z</time>
      </trkpt>
      <trkpt lat="43.8147" lon="7.1469">
        <ele>669.21508789062</ele>
        <time>2012-06-17T08:17:09Z</time>
      </trkpt>
      <trkpt lat="43.81463" lon="7.14608">
        <ele>669.69580078125</ele>
        <time>2012-06-17T08:17:28Z</time>
      </trkpt>
      <trkpt lat="43.81443" lon="7.14551">
        <ele>671.6181640625</ele>
        <time>2012-06-17T08:17:43Z</time>
      </trkpt>
      <trkpt lat="43.8142" lon="7.14493">
        <ele>672.57958984375</ele>
        <time>2012-06-17T08:18:00Z</time>
      </trkpt>
      <trkpt lat="43.81409" lon="7.14439">
        <ele>674.98291015625</ele>
        <time>2012-06-17T08:18:15Z</time>
      </trkpt>
      <trkpt lat="43.81408" lon="7.1443">
        <ele>675.46337890625</ele>
        <time>2012-06-17T08:18:18Z</time>
      </trkpt>
      <trkpt lat="43.814" lon="7.14373">
        <ele>678.34741210938</ele>
        <time>2012-06-17T08:18:36Z</time>
      </trkpt>
      <trkpt lat="43.81387" lon="7.14329">
        <ele>680.75073242188</ele>
        <time>2012-06-17T08:18:53Z</time>
      </trkpt>
      <trkpt lat="43.81384" lon="7.14312">
        <ele>680.75073242188</ele>
        <time>2012-06-17T08:18:58Z</time>
      </trkpt>
      <trkpt lat="43.81367" lon="7.14233">
        <ele>681.2314453125</ele>
        <time>2012-06-17T08:19:16Z</time>
      </trkpt>
      <trkpt lat="43.81351" lon="7.14162">
        <ele>682.67333984375</ele>
        <time>2012-06-17T08:19:34Z</time>
      </trkpt>
      <trkpt lat="43.81331" lon="7.14114">
        <ele>684.11547851562</ele>
        <time>2012-06-17T08:19:48Z</time>
      </trkpt>
      <trkpt lat="43.81295" lon="7.1405">
        <ele>686.51879882812</ele>
        <time>2012-06-17T08:20:08Z</time>
      </trkpt>
      <trkpt lat="43.81268" lon="7.14003">
        <ele>687.96069335938</ele>
        <time>2012-06-17T08:20:24Z</time>
      </trkpt>
      <trkpt lat="43.81238" lon="7.13942">
        <ele>690.84448242188</ele>
        <time>2012-06-17T08:20:45Z</time>
      </trkpt>
      <trkpt lat="43.81214" lon="7.13896">
        <ele>694.20922851562</ele>
        <time>2012-06-17T08:21:01Z</time>
      </trkpt>
      <trkpt lat="43.81188" lon="7.13846">
        <ele>696.1318359375</ele>
        <time>2012-06-17T08:21:19Z</time>
      </trkpt>
      <trkpt lat="43.81194" lon="7.13798">
        <ele>697.57373046875</ele>
        <time>2012-06-17T08:21:33Z</time>
      </trkpt>
      <trkpt lat="43.81194" lon="7.13725">
        <ele>698.53491210938</ele>
        <time>2012-06-17T08:21:50Z</time>
      </trkpt>
      <trkpt lat="43.8118" lon="7.13681">
        <ele>701.89990234375</ele>
        <time>2012-06-17T08:22:06Z</time>
      </trkpt>
      <trkpt lat="43.81163" lon="7.13627">
        <ele>704.78369140625</ele>
        <time>2012-06-17T08:22:29Z</time>
      </trkpt>
      <trkpt lat="43.8115" lon="7.13587">
        <ele>708.1484375</ele>
        <time>2012-06-17T08:22:46Z</time>
      </trkpt>
      <trkpt lat="43.81132" lon="7.13541">
        <ele>710.55151367188</ele>
        <time>2012-06-17T08:23:08Z</time>
      </trkpt>
      <trkpt lat="43.81126" lon="7.13529">
        <ele>711.0322265625</ele>
        <time>2012-06-17T08:23:14Z</time>
      </trkpt>
      <trkpt lat="43.81108" lon="7.13492">
        <ele>713.916015625</ele>
        <time>2012-06-17T08:23:33Z</time>
      </trkpt>
      <trkpt lat="43.81091" lon="7.13454">
        <ele>716.80029296875</ele>
        <time>2012-06-17T08:23:54Z</time>
      </trkpt>
      <trkpt lat="43.81075" lon="7.13422">
        <ele>719.68432617188</ele>
        <time>2012-06-17T08:24:12Z</time>
      </trkpt>
      <trkpt lat="43.81054" lon="7.1339">
        <ele>722.08740234375</ele>
        <time>2012-06-17T08:24:30Z</time>
      </trkpt>
      <trkpt lat="43.81024" lon="7.13351">
        <ele>724.49072265625</ele>
        <time>2012-06-17T08:24:51Z</time>
      </trkpt>
      <trkpt lat="43.81007" lon="7.13306">
        <ele>727.37475585938</ele>
        <time>2012-06-17T08:25:13Z</time>
      </trkpt>
      <trkpt lat="43.80999" lon="7.13285">
        <ele>729.29711914062</ele>
        <time>2012-06-17T08:25:23Z</time>
      </trkpt>
      <trkpt lat="43.80991" lon="7.13273">
        <ele>731.21997070312</ele>
        <time>2012-06-17T08:25:37Z</time>
      </trkpt>
      <trkpt lat="43.8099" lon="7.1327">
        <ele>732.18139648438</ele>
        <time>2012-06-17T08:26:29Z</time>
      </trkpt>
      <trkpt lat="43.80982" lon="7.13246">
        <ele>734.58471679688</ele>
        <time>2012-06-17T08:26:42Z</time>
      </trkpt>
      <trkpt lat="43.80972" lon="7.13217">
        <ele>737.94921875</ele>
        <time>2012-06-17T08:26:57Z</time>
      </trkpt>
      <trkpt lat="43.80967" lon="7.13207">
        <ele>739.39111328125</ele>
        <time>2012-06-17T08:27:11Z</time>
      </trkpt>
      <trkpt lat="43.8096" lon="7.13191">
        <ele>741.31372070312</ele>
        <time>2012-06-17T08:27:31Z</time>
      </trkpt>
      <trkpt lat="43.80958" lon="7.13189">
        <ele>741.79443359375</ele>
        <time>2012-06-17T08:28:04Z</time>
      </trkpt>
      <trkpt lat="43.80949" lon="7.13177">
        <ele>744.67822265625</ele>
        <time>2012-06-17T08:31:17Z</time>
      </trkpt>
      <trkpt lat="43.80935" lon="7.13159">
        <ele>747.56225585938</ele>
        <time>2012-06-17T08:31:36Z</time>
      </trkpt>
      <trkpt lat="43.80924" lon="7.13145">
        <ele>749.9658203125</ele>
        <time>2012-06-17T08:31:53Z</time>
      </trkpt>
      <trkpt lat="43.80917" lon="7.13137">
        <ele>751.88842773438</ele>
        <time>2012-06-17T08:32:16Z</time>
      </trkpt>
      <trkpt lat="43.80911" lon="7.13132">
        <ele>752.849609375</ele>
        <time>2012-06-17T08:32:32Z</time>
      </trkpt>
      <trkpt lat="43.80898" lon="7.13116">
        <ele>755.2529296875</ele>
        <time>2012-06-17T08:32:57Z</time>
      </trkpt>
      <trkpt lat="43.80879" lon="7.1309">
        <ele>758.13696289062</ele>
        <time>2012-06-17T08:33:14Z</time>
      </trkpt>
      <trkpt lat="43.80862" lon="7.13068">
        <ele>761.50146484375</ele>
        <time>2012-06-17T08:33:29Z</time>
      </trkpt>
      <trkpt lat="43.80851" lon="7.13046">
        <ele>764.38549804688</ele>
        <time>2012-06-17T08:33:42Z</time>
      </trkpt>
      <trkpt lat="43.80843" lon="7.13009">
        <ele>767.75</ele>
        <time>2012-06-17T08:34:00Z</time>
      </trkpt>
      <trkpt lat="43.80833" lon="7.12994">
        <ele>769.6728515625</ele>
        <time>2012-06-17T08:34:18Z</time>
      </trkpt>
      <trkpt lat="43.80817" lon="7.12977">
        <ele>772.07592773438</ele>
        <time>2012-06-17T08:34:50Z</time>
      </trkpt>
      <trkpt lat="43.808" lon="7.12957">
        <ele>775.4404296875</ele>
        <time>2012-06-17T08:35:06Z</time>
      </trkpt>
      <trkpt lat="43.80786" lon="7.12935">
        <ele>777.84375</ele>
        <time>2012-06-17T08:35:21Z</time>
      </trkpt>
      <trkpt lat="43.80771" lon="7.12909">
        <ele>781.20874023438</ele>
        <time>2012-06-17T08:35:38Z</time>
      </trkpt>
      <trkpt lat="43.80754" lon="7.1287">
        <ele>784.09252929688</ele>
        <time>2012-06-17T08:36:01Z</time>
      </trkpt>
      <trkpt lat="43.80739" lon="7.12831">
        <ele>786.97631835938</ele>
        <time>2012-06-17T08:36:23Z</time>
      </trkpt>
      <trkpt lat="43.80721" lon="7.12778">
        <ele>789.37963867188</ele>
        <time>2012-06-17T08:36:49Z</time>
      </trkpt>
      <trkpt lat="43.80708" lon="7.12748">
        <ele>791.30224609375</ele>
        <time>2012-06-17T08:37:04Z</time>
      </trkpt>
      <trkpt lat="43.80705" lon="7.12744">
        <ele>791.78295898438</ele>
        <time>2012-06-17T08:37:07Z</time>
      </trkpt>
      <trkpt lat="43.8069" lon="7.12699">
        <ele>795.1474609375</ele>
        <time>2012-06-17T08:37:30Z</time>
      </trkpt>
      <trkpt lat="43.80674" lon="7.12663">
        <ele>798.03173828125</ele>
        <time>2012-06-17T08:37:50Z</time>
      </trkpt>
      <trkpt lat="43.80656" lon="7.12607">
        <ele>800.91552734375</ele>
        <time>2012-06-17T08:38:17Z</time>
      </trkpt>
      <trkpt lat="43.80639" lon="7.12557">
        <ele>803.31884765625</ele>
        <time>2012-06-17T08:38:42Z</time>
      </trkpt>
      <trkpt lat="43.80618" lon="7.12523">
        <ele>806.68334960938</ele>
        <time>2012-06-17T08:39:03Z</time>
      </trkpt>
      <trkpt lat="43.80596" lon="7.12494">
        <ele>809.5673828125</ele>
        <time>2012-06-17T08:39:23Z</time>
      </trkpt>
      <trkpt lat="43.80574" lon="7.12464">
        <ele>812.45141601562</ele>
        <time>2012-06-17T08:39:45Z</time>
      </trkpt>
      <trkpt lat="43.80549" lon="7.12437">
        <ele>815.33544921875</ele>
        <time>2012-06-17T08:40:07Z</time>
      </trkpt>
      <trkpt lat="43.80516" lon="7.12403">
        <ele>816.77734375</ele>
        <time>2012-06-17T08:40:30Z</time>
      </trkpt>
      <trkpt lat="43.8049" lon="7.12379">
        <ele>817.73852539062</ele>
        <time>2012-06-17T08:40:45Z</time>
      </trkpt>
      <trkpt lat="43.80464" lon="7.12363">
        <ele>820.62255859375</ele>
        <time>2012-06-17T08:41:04Z</time>
      </trkpt>
      <trkpt lat="43.80441" lon="7.12351">
        <ele>823.98706054688</ele>
        <time>2012-06-17T08:41:21Z</time>
      </trkpt>
      <trkpt lat="43.80422" lon="7.12333">
        <ele>826.87109375</ele>
        <time>2012-06-17T08:41:37Z</time>
      </trkpt>
      <trkpt lat="43.80404" lon="7.12313">
        <ele>830.23583984375</ele>
        <time>2012-06-17T08:41:52Z</time>
      </trkpt>
      <trkpt lat="43.80388" lon="7.12297">
        <ele>833.11962890625</ele>
        <time>2012-06-17T08:42:05Z</time>
      </trkpt>
      <trkpt lat="43.80368" lon="7.12278">
        <ele>836.00366210938</ele>
        <time>2012-06-17T08:42:21Z</time>
      </trkpt>
      <trkpt lat="43.80334" lon="7.12249">
        <ele>838.8876953125</ele>
        <time>2012-06-17T08:42:46Z</time>
      </trkpt>
      <trkpt lat="43.80302" lon="7.12207">
        <ele>840.81005859375</ele>
        <time>2012-06-17T08:43:11Z</time>
      </trkpt>
      <trkpt lat="43.80286" lon="7.1216">
        <ele>843.69409179688</ele>
        <time>2012-06-17T08:43:33Z</time>
      </trkpt>
      <trkpt lat="43.80285" lon="7.12128">
        <ele>847.05883789062</ele>
        <time>2012-06-17T08:43:48Z</time>
      </trkpt>
      <trkpt lat="43.80279" lon="7.12079">
        <ele>848.02026367188</ele>
        <time>2012-06-17T08:44:07Z</time>
      </trkpt>
      <trkpt lat="43.80265" lon="7.12031">
        <ele>848.02026367188</ele>
        <time>2012-06-17T08:44:20Z</time>
      </trkpt>
      <trkpt lat="43.80241" lon="7.12024">
        <ele>850.90405273438</ele>
        <time>2012-06-17T08:44:34Z</time>
      </trkpt>
      <trkpt lat="43.80238" lon="7.12019">
        <ele>851.384765625</ele>
        <time>2012-06-17T08:44:37Z</time>
      </trkpt>
      <trkpt lat="43.80228" lon="7.11978">
        <ele>854.74926757812</ele>
        <time>2012-06-17T08:44:57Z</time>
      </trkpt>
      <trkpt lat="43.8024" lon="7.1193">
        <ele>855.22998046875</ele>
        <time>2012-06-17T08:45:13Z</time>
      </trkpt>
      <trkpt lat="43.80266" lon="7.1188">
        <ele>857.63330078125</ele>
        <time>2012-06-17T08:45:32Z</time>
      </trkpt>
      <trkpt lat="43.8027" lon="7.11828">
        <ele>858.59448242188</ele>
        <time>2012-06-17T08:45:48Z</time>
      </trkpt>
      <trkpt lat="43.80259" lon="7.11785">
        <ele>860.998046875</ele>
        <time>2012-06-17T08:46:06Z</time>
      </trkpt>
      <trkpt lat="43.8024" lon="7.11741">
        <ele>863.8818359375</ele>
        <time>2012-06-17T08:46:28Z</time>
      </trkpt>
      <trkpt lat="43.80238" lon="7.11728">
        <ele>864.84326171875</ele>
        <time>2012-06-17T08:46:34Z</time>
      </trkpt>
      <trkpt lat="43.80229" lon="7.11686">
        <ele>867.72705078125</ele>
        <time>2012-06-17T08:46:54Z</time>
      </trkpt>
      <trkpt lat="43.80226" lon="7.11674">
        <ele>868.6884765625</ele>
        <time>2012-06-17T08:47:00Z</time>
      </trkpt>
      <trkpt lat="43.80207" lon="7.11631">
        <ele>871.091796875</ele>
        <time>2012-06-17T08:47:21Z</time>
      </trkpt>
      <trkpt lat="43.80181" lon="7.11603">
        <ele>873.01440429688</ele>
        <time>2012-06-17T08:47:39Z</time>
      </trkpt>
      <trkpt lat="43.80158" lon="7.11562">
        <ele>875.41748046875</ele>
        <time>2012-06-17T08:48:00Z</time>
      </trkpt>
      <trkpt lat="43.80136" lon="7.11511">
        <ele>878.3017578125</ele>
        <time>2012-06-17T08:48:24Z</time>
      </trkpt>
      <trkpt lat="43.80114" lon="7.11459">
        <ele>881.18579101562</ele>
        <time>2012-06-17T08:48:46Z</time>
      </trkpt>
      <trkpt lat="43.80093" lon="7.1139">
        <ele>884.06958007812</ele>
        <time>2012-06-17T08:49:10Z</time>
      </trkpt>
      <trkpt lat="43.80085" lon="7.11316">
        <ele>886.95336914062</ele>
        <time>2012-06-17T08:49:34Z</time>
      </trkpt>
      <trkpt lat="43.80076" lon="7.11307">
        <ele>887.43408203125</ele>
        <time>2012-06-17T08:49:45Z</time>
      </trkpt>
      <trkpt lat="43.80074" lon="7.11307">
        <ele>887.91479492188</ele>
        <time>2012-06-17T08:50:03Z</time>
      </trkpt>
      <trkpt lat="43.80076" lon="7.11305">
        <ele>887.91479492188</ele>
        <time>2012-06-17T08:50:16Z</time>
      </trkpt>
      <trkpt lat="43.80075" lon="7.11305">
        <ele>888.3955078125</ele>
        <time>2012-06-17T08:58:05Z</time>
      </trkpt>
      <trkpt lat="43.80075" lon="7.11306">
        <ele>889.35668945312</ele>
        <time>2012-06-17T08:58:57Z</time>
      </trkpt>
      <trkpt lat="43.80064" lon="7.11307">
        <ele>889.35668945312</ele>
        <time>2012-06-17T08:59:51Z</time>
      </trkpt>
      <trkpt lat="43.80065" lon="7.11306">
        <ele>888.87622070312</ele>
        <time>2012-06-17T08:59:53Z</time>
      </trkpt>
      <trkpt lat="43.80053" lon="7.11338">
        <ele>889.35668945312</ele>
        <time>2012-06-17T09:01:12Z</time>
      </trkpt>
      <trkpt lat="43.80048" lon="7.1135">
        <ele>892.7216796875</ele>
        <time>2012-06-17T09:01:18Z</time>
      </trkpt>
      <trkpt lat="43.80039" lon="7.11366">
        <ele>896.08618164062</ele>
        <time>2012-06-17T09:01:28Z</time>
      </trkpt>
      <trkpt lat="43.8003" lon="7.1138">
        <ele>899.45068359375</ele>
        <time>2012-06-17T09:01:37Z</time>
      </trkpt>
      <trkpt lat="43.80021" lon="7.11394">
        <ele>902.33447265625</ele>
        <time>2012-06-17T09:01:47Z</time>
      </trkpt>
      <trkpt lat="43.80009" lon="7.11406">
        <ele>905.69921875</ele>
        <time>2012-06-17T09:01:58Z</time>
      </trkpt>
      <trkpt lat="43.79999" lon="7.11412">
        <ele>907.14111328125</ele>
        <time>2012-06-17T09:02:05Z</time>
      </trkpt>
      <trkpt lat="43.79983" lon="7.11426">
        <ele>910.02514648438</ele>
        <time>2012-06-17T09:02:17Z</time>
      </trkpt>
      <trkpt lat="43.79956" lon="7.11442">
        <ele>913.38989257812</ele>
        <time>2012-06-17T09:02:39Z</time>
      </trkpt>
      <trkpt lat="43.79923" lon="7.11454">
        <ele>915.79321289062</ele>
        <time>2012-06-17T09:03:03Z</time>
      </trkpt>
      <trkpt lat="43.79894" lon="7.11469">
        <ele>918.67700195312</ele>
        <time>2012-06-17T09:03:25Z</time>
      </trkpt>
      <trkpt lat="43.79873" lon="7.11474">
        <ele>920.599609375</ele>
        <time>2012-06-17T09:03:40Z</time>
      </trkpt>
      <trkpt lat="43.79844" lon="7.11481">
        <ele>923.0029296875</ele>
        <time>2012-06-17T09:04:05Z</time>
      </trkpt>
      <trkpt lat="43.79825" lon="7.11484">
        <ele>923.48364257812</ele>
        <time>2012-06-17T09:04:28Z</time>
      </trkpt>
      <trkpt lat="43.79816" lon="7.11486">
        <ele>924.44506835938</ele>
        <time>2012-06-17T09:04:34Z</time>
      </trkpt>
      <trkpt lat="43.79791" lon="7.11498">
        <ele>927.3291015625</ele>
        <time>2012-06-17T09:04:51Z</time>
      </trkpt>
      <trkpt lat="43.79777" lon="7.11501">
        <ele>929.25146484375</ele>
        <time>2012-06-17T09:05:00Z</time>
      </trkpt>
      <trkpt lat="43.79778" lon="7.11508">
        <ele>929.73217773438</ele>
        <time>2012-06-17T09:05:05Z</time>
      </trkpt>
      <trkpt lat="43.79787" lon="7.11521">
        <ele>931.65478515625</ele>
        <time>2012-06-17T09:05:14Z</time>
      </trkpt>
      <trkpt lat="43.79785" lon="7.11526">
        <ele>931.65478515625</ele>
        <time>2012-06-17T09:05:18Z</time>
      </trkpt>
      <trkpt lat="43.79783" lon="7.11526">
        <ele>932.13549804688</ele>
        <time>2012-06-17T09:05:21Z</time>
      </trkpt>
      <trkpt lat="43.79779" lon="7.11525">
        <ele>932.6162109375</ele>
        <time>2012-06-17T09:05:45Z</time>
      </trkpt>
      <trkpt lat="43.79761" lon="7.11518">
        <ele>934.05810546875</ele>
        <time>2012-06-17T09:06:17Z</time>
      </trkpt>
      <trkpt lat="43.79731" lon="7.1151">
        <ele>936.94189453125</ele>
        <time>2012-06-17T09:06:37Z</time>
      </trkpt>
      <trkpt lat="43.79697" lon="7.11499">
        <ele>939.82592773438</ele>
        <time>2012-06-17T09:06:59Z</time>
      </trkpt>
      <trkpt lat="43.7967" lon="7.1149">
        <ele>943.19067382812</ele>
        <time>2012-06-17T09:07:17Z</time>
      </trkpt>
      <trkpt lat="43.79665" lon="7.11487">
        <ele>943.67138671875</ele>
        <time>2012-06-17T09:07:20Z</time>
      </trkpt>
      <trkpt lat="43.79649" lon="7.11479">
        <ele>945.59399414062</ele>
        <time>2012-06-17T09:07:31Z</time>
      </trkpt>
      <trkpt lat="43.79632" lon="7.11476">
        <ele>947.99731445312</ele>
        <time>2012-06-17T09:07:47Z</time>
      </trkpt>
      <trkpt lat="43.79624" lon="7.11472">
        <ele>948.95849609375</ele>
        <time>2012-06-17T09:08:19Z</time>
      </trkpt>
      <trkpt lat="43.79623" lon="7.11481">
        <ele>950.40063476562</ele>
        <time>2012-06-17T09:08:28Z</time>
      </trkpt>
      <trkpt lat="43.79635" lon="7.11509">
        <ele>952.32299804688</ele>
        <time>2012-06-17T09:08:43Z</time>
      </trkpt>
      <trkpt lat="43.79641" lon="7.11537">
        <ele>955.20703125</ele>
        <time>2012-06-17T09:08:56Z</time>
      </trkpt>
      <trkpt lat="43.79642" lon="7.11552">
        <ele>957.1298828125</ele>
        <time>2012-06-17T09:09:03Z</time>
      </trkpt>
      <trkpt lat="43.79653" lon="7.11574">
        <ele>960.49438476562</ele>
        <time>2012-06-17T09:09:17Z</time>
      </trkpt>
      <trkpt lat="43.7966" lon="7.11587">
        <ele>962.89770507812</ele>
        <time>2012-06-17T09:09:55Z</time>
      </trkpt>
      <trkpt lat="43.79662" lon="7.11594">
        <ele>963.85888671875</ele>
        <time>2012-06-17T09:10:10Z</time>
      </trkpt>
      <trkpt lat="43.79679" lon="7.11619">
        <ele>966.26220703125</ele>
        <time>2012-06-17T09:10:27Z</time>
      </trkpt>
      <trkpt lat="43.79693" lon="7.11644">
        <ele>969.626953125</ele>
        <time>2012-06-17T09:10:42Z</time>
      </trkpt>
      <trkpt lat="43.79702" lon="7.1166">
        <ele>972.0302734375</ele>
        <time>2012-06-17T09:10:52Z</time>
      </trkpt>
      <trkpt lat="43.79703" lon="7.11665">
        <ele>972.0302734375</ele>
        <time>2012-06-17T09:10:55Z</time>
      </trkpt>
      <trkpt lat="43.79717" lon="7.11695">
        <ele>973.47241210938</ele>
        <time>2012-06-17T09:11:16Z</time>
      </trkpt>
      <trkpt lat="43.79716" lon="7.11708">
        <ele>973.47241210938</ele>
        <time>2012-06-17T09:11:34Z</time>
      </trkpt>
      <trkpt lat="43.79717" lon="7.1173">
        <ele>973.95288085938</ele>
        <time>2012-06-17T09:12:42Z</time>
      </trkpt>
      <trkpt lat="43.79708" lon="7.11782">
        <ele>974.91430664062</ele>
        <time>2012-06-17T09:12:58Z</time>
      </trkpt>
      <trkpt lat="43.79688" lon="7.11814">
        <ele>976.8369140625</ele>
        <time>2012-06-17T09:13:12Z</time>
      </trkpt>
      <trkpt lat="43.79686" lon="7.11853">
        <ele>980.20141601562</ele>
        <time>2012-06-17T09:13:30Z</time>
      </trkpt>
      <trkpt lat="43.79679" lon="7.11894">
        <ele>982.1240234375</ele>
        <time>2012-06-17T09:13:49Z</time>
      </trkpt>
      <trkpt lat="43.79673" lon="7.11946">
        <ele>983.56591796875</ele>
        <time>2012-06-17T09:14:09Z</time>
      </trkpt>
      <trkpt lat="43.79654" lon="7.12003">
        <ele>985.48852539062</ele>
        <time>2012-06-17T09:14:28Z</time>
      </trkpt>
      <trkpt lat="43.79634" lon="7.12027">
        <ele>986.93041992188</ele>
        <time>2012-06-17T09:14:40Z</time>
      </trkpt>
      <trkpt lat="43.79608" lon="7.12055">
        <ele>987.89184570312</ele>
        <time>2012-06-17T09:14:53Z</time>
      </trkpt>
      <trkpt lat="43.79602" lon="7.12108">
        <ele>990.77587890625</ele>
        <time>2012-06-17T09:15:10Z</time>
      </trkpt>
      <trkpt lat="43.79585" lon="7.12151">
        <ele>992.21801757812</ele>
        <time>2012-06-17T09:15:25Z</time>
      </trkpt>
      <trkpt lat="43.79566" lon="7.1219">
        <ele>995.10180664062</ele>
        <time>2012-06-17T09:15:42Z</time>
      </trkpt>
      <trkpt lat="43.79563" lon="7.12204">
        <ele>996.06323242188</ele>
        <time>2012-06-17T09:15:49Z</time>
      </trkpt>
      <trkpt lat="43.79576" lon="7.12251">
        <ele>998.94702148438</ele>
        <time>2012-06-17T09:16:11Z</time>
      </trkpt>
      <trkpt lat="43.79588" lon="7.12289">
        <ele>999.427734375</ele>
        <time>2012-06-17T09:16:27Z</time>
      </trkpt>
      <trkpt lat="43.79577" lon="7.12331">
        <ele>1000.8696289062</ele>
        <time>2012-06-17T09:16:41Z</time>
      </trkpt>
      <trkpt lat="43.79569" lon="7.12373">
        <ele>1001.8310546875</ele>
        <time>2012-06-17T09:16:56Z</time>
      </trkpt>
      <trkpt lat="43.79571" lon="7.12422">
        <ele>999.90844726562</ele>
        <time>2012-06-17T09:17:09Z</time>
      </trkpt>
      <trkpt lat="43.79558" lon="7.12443">
        <ele>997.0244140625</ele>
        <time>2012-06-17T09:17:13Z</time>
      </trkpt>
      <trkpt lat="43.79553" lon="7.12445">
        <ele>997.0244140625</ele>
        <time>2012-06-17T09:17:14Z</time>
      </trkpt>
      <trkpt lat="43.79542" lon="7.12449">
        <ele>995.58251953125</ele>
        <time>2012-06-17T09:17:16Z</time>
      </trkpt>
      <trkpt lat="43.79527" lon="7.12473">
        <ele>995.58251953125</ele>
        <time>2012-06-17T09:17:20Z</time>
      </trkpt>
      <trkpt lat="43.79503" lon="7.12533">
        <ele>997.50512695312</ele>
        <time>2012-06-17T09:17:33Z</time>
      </trkpt>
      <trkpt lat="43.79492" lon="7.1256">
        <ele>1000.8696289062</ele>
        <time>2012-06-17T09:17:46Z</time>
      </trkpt>
      <trkpt lat="43.79492" lon="7.12563">
        <ele>1001.3503417969</ele>
        <time>2012-06-17T09:17:47Z</time>
      </trkpt>
      <trkpt lat="43.79492" lon="7.12565">
        <ele>1001.8310546875</ele>
        <time>2012-06-17T09:17:48Z</time>
      </trkpt>
      <trkpt lat="43.79485" lon="7.12604">
        <ele>1004.7150878906</ele>
        <time>2012-06-17T09:18:06Z</time>
      </trkpt>
      <trkpt lat="43.79456" lon="7.12612">
        <ele>1007.1184082031</ele>
        <time>2012-06-17T09:18:25Z</time>
      </trkpt>
      <trkpt lat="43.79428" lon="7.12628">
        <ele>1006.6376953125</ele>
        <time>2012-06-17T09:18:41Z</time>
      </trkpt>
      <trkpt lat="43.79393" lon="7.12644">
        <ele>1009.041015625</ele>
        <time>2012-06-17T09:18:59Z</time>
      </trkpt>
      <trkpt lat="43.79372" lon="7.12674">
        <ele>1010.9636230469</ele>
        <time>2012-06-17T09:19:15Z</time>
      </trkpt>
      <trkpt lat="43.79348" lon="7.12718">
        <ele>1012.4055175781</ele>
        <time>2012-06-17T09:19:34Z</time>
      </trkpt>
      <trkpt lat="43.79326" lon="7.12721">
        <ele>1012.4055175781</ele>
        <time>2012-06-17T09:19:45Z</time>
      </trkpt>
      <trkpt lat="43.7929" lon="7.12753">
        <ele>1010.9636230469</ele>
        <time>2012-06-17T09:20:04Z</time>
      </trkpt>
      <trkpt lat="43.79289" lon="7.12753">
        <ele>1010.9636230469</ele>
        <time>2012-06-17T09:20:26Z</time>
      </trkpt>
      <trkpt lat="43.7929" lon="7.12753">
        <ele>1010.4829101562</ele>
        <time>2012-06-17T09:27:03Z</time>
      </trkpt>
      <trkpt lat="43.79293" lon="7.12767">
        <ele>1009.041015625</ele>
        <time>2012-06-17T09:27:10Z</time>
      </trkpt>
      <trkpt lat="43.79291" lon="7.12783">
        <ele>1007.5991210938</ele>
        <time>2012-06-17T09:27:13Z</time>
      </trkpt>
      <trkpt lat="43.7929" lon="7.12812">
        <ele>1004.2346191406</ele>
        <time>2012-06-17T09:27:17Z</time>
      </trkpt>
      <trkpt lat="43.79289" lon="7.12825">
        <ele>1003.2729492188</ele>
        <time>2012-06-17T09:27:19Z</time>
      </trkpt>
      <trkpt lat="43.79285" lon="7.1285">
        <ele>1000.3891601562</ele>
        <time>2012-06-17T09:27:23Z</time>
      </trkpt>
      <trkpt lat="43.79283" lon="7.12872">
        <ele>997.0244140625</ele>
        <time>2012-06-17T09:27:26Z</time>
      </trkpt>
      <trkpt lat="43.79282" lon="7.12879">
        <ele>996.06323242188</ele>
        <time>2012-06-17T09:27:27Z</time>
      </trkpt>
      <trkpt lat="43.79282" lon="7.12896">
        <ele>996.5439453125</ele>
        <time>2012-06-17T09:27:30Z</time>
      </trkpt>
      <trkpt lat="43.79278" lon="7.12899">
        <ele>995.58251953125</ele>
        <time>2012-06-17T09:27:37Z</time>
      </trkpt>
      <trkpt lat="43.79262" lon="7.12888">
        <ele>992.21801757812</ele>
        <time>2012-06-17T09:27:43Z</time>
      </trkpt>
      <trkpt lat="43.79259" lon="7.12887">
        <ele>991.25659179688</ele>
        <time>2012-06-17T09:27:44Z</time>
      </trkpt>
      <trkpt lat="43.79237" lon="7.12892">
        <ele>986.93041992188</ele>
        <time>2012-06-17T09:27:49Z</time>
      </trkpt>
      <trkpt lat="43.7923" lon="7.12894">
        <ele>986.44995117188</ele>
        <time>2012-06-17T09:27:51Z</time>
      </trkpt>
      <trkpt lat="43.79233" lon="7.12904">
        <ele>986.93041992188</ele>
        <time>2012-06-17T09:27:58Z</time>
      </trkpt>
      <trkpt lat="43.79244" lon="7.12911">
        <ele>984.52734375</ele>
        <time>2012-06-17T09:28:03Z</time>
      </trkpt>
      <trkpt lat="43.79249" lon="7.12917">
        <ele>984.04663085938</ele>
        <time>2012-06-17T09:28:05Z</time>
      </trkpt>
      <trkpt lat="43.79249" lon="7.12927">
        <ele>982.60473632812</ele>
        <time>2012-06-17T09:28:10Z</time>
      </trkpt>
      <trkpt lat="43.79238" lon="7.12935">
        <ele>980.20141601562</ele>
        <time>2012-06-17T09:28:15Z</time>
      </trkpt>
      <trkpt lat="43.7923" lon="7.12943">
        <ele>977.79809570312</ele>
        <time>2012-06-17T09:28:18Z</time>
      </trkpt>
      <trkpt lat="43.79229" lon="7.12968">
        <ele>973.47241210938</ele>
        <time>2012-06-17T09:28:24Z</time>
      </trkpt>
      <trkpt lat="43.7923" lon="7.12974">
        <ele>973.47241210938</ele>
        <time>2012-06-17T09:28:25Z</time>
      </trkpt>
      <trkpt lat="43.7924" lon="7.13014">
        <ele>970.107421875</ele>
        <time>2012-06-17T09:28:32Z</time>
      </trkpt>
      <trkpt lat="43.79241" lon="7.13019">
        <ele>970.107421875</ele>
        <time>2012-06-17T09:28:33Z</time>
      </trkpt>
      <trkpt lat="43.79241" lon="7.13025">
        <ele>969.14624023438</ele>
        <time>2012-06-17T09:28:34Z</time>
      </trkpt>
      <trkpt lat="43.79224" lon="7.13054">
        <ele>964.33959960938</ele>
        <time>2012-06-17T09:28:42Z</time>
      </trkpt>
      <trkpt lat="43.79205" lon="7.13062">
        <ele>961.9365234375</ele>
        <time>2012-06-17T09:28:48Z</time>
      </trkpt>
      <trkpt lat="43.79202" lon="7.13063">
        <ele>961.45581054688</ele>
        <time>2012-06-17T09:28:49Z</time>
      </trkpt>
      <trkpt lat="43.79197" lon="7.13062">
        <ele>960.49438476562</ele>
        <time>2012-06-17T09:29:01Z</time>
      </trkpt>
      <trkpt lat="43.79192" lon="7.13061">
        <ele>959.05249023438</ele>
        <time>2012-06-17T09:29:07Z</time>
      </trkpt>
      <trkpt lat="43.79178" lon="7.13072">
        <ele>956.16845703125</ele>
        <time>2012-06-17T09:29:12Z</time>
      </trkpt>
      <trkpt lat="43.79172" lon="7.1308">
        <ele>954.24584960938</ele>
        <time>2012-06-17T09:29:14Z</time>
      </trkpt>
      <trkpt lat="43.79165" lon="7.13082">
        <ele>953.28442382812</ele>
        <time>2012-06-17T09:29:16Z</time>
      </trkpt>
      <trkpt lat="43.79152" lon="7.13079">
        <ele>950.88110351562</ele>
        <time>2012-06-17T09:29:19Z</time>
      </trkpt>
      <trkpt lat="43.79133" lon="7.13092">
        <ele>947.5166015625</ele>
        <time>2012-06-17T09:29:25Z</time>
      </trkpt>
      <trkpt lat="43.79132" lon="7.13096">
        <ele>946.55541992188</ele>
        <time>2012-06-17T09:29:26Z</time>
      </trkpt>
      <trkpt lat="43.79126" lon="7.13114">
        <ele>944.63256835938</ele>
        <time>2012-06-17T09:29:29Z</time>
      </trkpt>
      <trkpt lat="43.79117" lon="7.1314">
        <ele>943.67138671875</ele>
        <time>2012-06-17T09:29:33Z</time>
      </trkpt>
      <trkpt lat="43.79101" lon="7.13202">
        <ele>942.2294921875</ele>
        <time>2012-06-17T09:29:44Z</time>
      </trkpt>
      <trkpt lat="43.79096" lon="7.1322">
        <ele>942.2294921875</ele>
        <time>2012-06-17T09:29:55Z</time>
      </trkpt>
      <trkpt lat="43.79081" lon="7.13262">
        <ele>942.2294921875</ele>
        <time>2012-06-17T09:30:04Z</time>
      </trkpt>
      <trkpt lat="43.79077" lon="7.13283">
        <ele>938.86474609375</ele>
        <time>2012-06-17T09:30:08Z</time>
      </trkpt>
      <trkpt lat="43.79069" lon="7.13307">
        <ele>937.42260742188</ele>
        <time>2012-06-17T09:30:11Z</time>
      </trkpt>
      <trkpt lat="43.79061" lon="7.13332">
        <ele>940.78735351562</ele>
        <time>2012-06-17T09:30:16Z</time>
      </trkpt>
      <trkpt lat="43.79054" lon="7.13349">
        <ele>943.67138671875</ele>
        <time>2012-06-17T09:30:26Z</time>
      </trkpt>
      <trkpt lat="43.79051" lon="7.1336">
        <ele>946.07470703125</ele>
        <time>2012-06-17T09:30:40Z</time>
      </trkpt>
      <trkpt lat="43.79051" lon="7.13361">
        <ele>946.07470703125</ele>
        <time>2012-06-17T09:30:41Z</time>
      </trkpt>
      <trkpt lat="43.79048" lon="7.13373">
        <ele>947.03588867188</ele>
        <time>2012-06-17T09:31:00Z</time>
      </trkpt>
      <trkpt lat="43.79042" lon="7.13396">
        <ele>948.95849609375</ele>
        <time>2012-06-17T09:31:18Z</time>
      </trkpt>
      <trkpt lat="43.79031" lon="7.13434">
        <ele>950.88110351562</ele>
        <time>2012-06-17T09:31:34Z</time>
      </trkpt>
      <trkpt lat="43.79019" lon="7.1347">
        <ele>953.28442382812</ele>
        <time>2012-06-17T09:31:49Z</time>
      </trkpt>
      <trkpt lat="43.79003" lon="7.13529">
        <ele>955.68774414062</ele>
        <time>2012-06-17T09:32:11Z</time>
      </trkpt>
      <trkpt lat="43.78984" lon="7.13582">
        <ele>956.64916992188</ele>
        <time>2012-06-17T09:32:28Z</time>
      </trkpt>
      <trkpt lat="43.78974" lon="7.13617">
        <ele>952.32299804688</ele>
        <time>2012-06-17T09:32:37Z</time>
      </trkpt>
      <trkpt lat="43.78965" lon="7.13646">
        <ele>948.47778320312</ele>
        <time>2012-06-17T09:32:41Z</time>
      </trkpt>
      <trkpt lat="43.78941" lon="7.13733">
        <ele>947.99731445312</ele>
        <time>2012-06-17T09:32:52Z</time>
      </trkpt>
      <trkpt lat="43.78924" lon="7.13792">
        <ele>947.99731445312</ele>
        <time>2012-06-17T09:33:06Z</time>
      </trkpt>
      <trkpt lat="43.78911" lon="7.13834">
        <ele>946.07470703125</ele>
        <time>2012-06-17T09:33:15Z</time>
      </trkpt>
      <trkpt lat="43.78902" lon="7.13864">
        <ele>942.71020507812</ele>
        <time>2012-06-17T09:33:20Z</time>
      </trkpt>
      <trkpt lat="43.78898" lon="7.13877">
        <ele>941.74877929688</ele>
        <time>2012-06-17T09:33:22Z</time>
      </trkpt>
      <trkpt lat="43.78891" lon="7.13903">
        <ele>939.82592773438</ele>
        <time>2012-06-17T09:33:26Z</time>
      </trkpt>
      <trkpt lat="43.78883" lon="7.13926">
        <ele>938.38403320312</ele>
        <time>2012-06-17T09:33:30Z</time>
      </trkpt>
      <trkpt lat="43.7888" lon="7.13944">
        <ele>935.5</ele>
        <time>2012-06-17T09:33:33Z</time>
      </trkpt>
      <trkpt lat="43.78872" lon="7.13971">
        <ele>930.69360351562</ele>
        <time>2012-06-17T09:33:38Z</time>
      </trkpt>
      <trkpt lat="43.78866" lon="7.13996">
        <ele>928.29028320312</ele>
        <time>2012-06-17T09:33:42Z</time>
      </trkpt>
      <trkpt lat="43.78855" lon="7.14019">
        <ele>924.92578125</ele>
        <time>2012-06-17T09:33:48Z</time>
      </trkpt>
      <trkpt lat="43.78851" lon="7.14024">
        <ele>922.52221679688</ele>
        <time>2012-06-17T09:33:50Z</time>
      </trkpt>
      <trkpt lat="43.78849" lon="7.14047">
        <ele>919.15771484375</ele>
        <time>2012-06-17T09:33:57Z</time>
      </trkpt>
      <trkpt lat="43.78841" lon="7.1407">
        <ele>914.83178710938</ele>
        <time>2012-06-17T09:34:01Z</time>
      </trkpt>
      <trkpt lat="43.78832" lon="7.14113">
        <ele>910.505859375</ele>
        <time>2012-06-17T09:34:06Z</time>
      </trkpt>
      <trkpt lat="43.7882" lon="7.14155">
        <ele>909.54467773438</ele>
        <time>2012-06-17T09:34:15Z</time>
      </trkpt>
      <trkpt lat="43.78814" lon="7.14186">
        <ele>907.62182617188</ele>
        <time>2012-06-17T09:34:37Z</time>
      </trkpt>
      <trkpt lat="43.78799" lon="7.14241">
        <ele>904.73779296875</ele>
        <time>2012-06-17T09:34:47Z</time>
      </trkpt>
      <trkpt lat="43.78789" lon="7.14273">
        <ele>901.37329101562</ele>
        <time>2012-06-17T09:34:53Z</time>
      </trkpt>
      <trkpt lat="43.78784" lon="7.14289">
        <ele>897.04736328125</ele>
        <time>2012-06-17T09:34:56Z</time>
      </trkpt>
      <trkpt lat="43.78766" lon="7.14331">
        <ele>896.56689453125</ele>
        <time>2012-06-17T09:35:06Z</time>
      </trkpt>
      <trkpt lat="43.78754" lon="7.14334">
        <ele>896.08618164062</ele>
        <time>2012-06-17T09:35:18Z</time>
      </trkpt>
      <trkpt lat="43.78734" lon="7.14322">
        <ele>894.64404296875</ele>
        <time>2012-06-17T09:36:04Z</time>
      </trkpt>
      <trkpt lat="43.78727" lon="7.14317">
        <ele>893.2021484375</ele>
        <time>2012-06-17T09:36:06Z</time>
      </trkpt>
      <trkpt lat="43.7869" lon="7.14311">
        <ele>889.83740234375</ele>
        <time>2012-06-17T09:36:13Z</time>
      </trkpt>
      <trkpt lat="43.78676" lon="7.14311">
        <ele>888.87622070312</ele>
        <time>2012-06-17T09:36:16Z</time>
      </trkpt>
      <trkpt lat="43.78662" lon="7.14323">
        <ele>885.03100585938</ele>
        <time>2012-06-17T09:36:20Z</time>
      </trkpt>
      <trkpt lat="43.78657" lon="7.14333">
        <ele>884.06958007812</ele>
        <time>2012-06-17T09:36:22Z</time>
      </trkpt>
      <trkpt lat="43.7865" lon="7.14342">
        <ele>882.62768554688</ele>
        <time>2012-06-17T09:36:24Z</time>
      </trkpt>
      <trkpt lat="43.78644" lon="7.14345">
        <ele>881.18579101562</ele>
        <time>2012-06-17T09:36:26Z</time>
      </trkpt>
      <trkpt lat="43.78638" lon="7.14347">
        <ele>880.22436523438</ele>
        <time>2012-06-17T09:36:28Z</time>
      </trkpt>
      <trkpt lat="43.78626" lon="7.14349">
        <ele>878.3017578125</ele>
        <time>2012-06-17T09:36:32Z</time>
      </trkpt>
      <trkpt lat="43.78624" lon="7.14348">
        <ele>878.3017578125</ele>
        <time>2012-06-17T09:36:33Z</time>
      </trkpt>
      <trkpt lat="43.78607" lon="7.14336">
        <ele>877.34057617188</ele>
        <time>2012-06-17T09:36:39Z</time>
      </trkpt>
      <trkpt lat="43.786" lon="7.14329">
        <ele>875.41748046875</ele>
        <time>2012-06-17T09:36:41Z</time>
      </trkpt>
      <trkpt lat="43.78584" lon="7.14314">
        <ele>875.41748046875</ele>
        <time>2012-06-17T09:36:52Z</time>
      </trkpt>
      <trkpt lat="43.78565" lon="7.14306">
        <ele>873.01440429688</ele>
        <time>2012-06-17T09:37:11Z</time>
      </trkpt>
      <trkpt lat="43.78552" lon="7.14294">
        <ele>871.091796875</ele>
        <time>2012-06-17T09:37:15Z</time>
      </trkpt>
      <trkpt lat="43.78544" lon="7.1429">
        <ele>870.61108398438</ele>
        <time>2012-06-17T09:37:17Z</time>
      </trkpt>
      <trkpt lat="43.78525" lon="7.14288">
        <ele>866.76586914062</ele>
        <time>2012-06-17T09:37:21Z</time>
      </trkpt>
      <trkpt lat="43.78521" lon="7.14287">
        <ele>867.24658203125</ele>
        <time>2012-06-17T09:37:22Z</time>
      </trkpt>
      <trkpt lat="43.78505" lon="7.14274">
        <ele>864.36254882812</ele>
        <time>2012-06-17T09:37:28Z</time>
      </trkpt>
      <trkpt lat="43.7849" lon="7.14265">
        <ele>860.998046875</ele>
        <time>2012-06-17T09:37:35Z</time>
      </trkpt>
      <trkpt lat="43.7848" lon="7.14265">
        <ele>858.59448242188</ele>
        <time>2012-06-17T09:37:40Z</time>
      </trkpt>
      <trkpt lat="43.78475" lon="7.14268">
        <ele>857.15258789062</ele>
        <time>2012-06-17T09:37:47Z</time>
      </trkpt>
      <trkpt lat="43.78464" lon="7.14263">
        <ele>854.26879882812</ele>
        <time>2012-06-17T09:37:53Z</time>
      </trkpt>
      <trkpt lat="43.78459" lon="7.14261">
        <ele>853.30737304688</ele>
        <time>2012-06-17T09:37:55Z</time>
      </trkpt>
      <trkpt lat="43.78439" lon="7.14254">
        <ele>849.46215820312</ele>
        <time>2012-06-17T09:38:00Z</time>
      </trkpt>
      <trkpt lat="43.78434" lon="7.14252">
        <ele>848.9814453125</ele>
        <time>2012-06-17T09:38:01Z</time>
      </trkpt>
      <trkpt lat="43.78428" lon="7.14251">
        <ele>848.50073242188</ele>
        <time>2012-06-17T09:38:02Z</time>
      </trkpt>
      <trkpt lat="43.7841" lon="7.14243">
        <ele>847.05883789062</ele>
        <time>2012-06-17T09:38:07Z</time>
      </trkpt>
      <trkpt lat="43.78397" lon="7.14243">
        <ele>844.65551757812</ele>
        <time>2012-06-17T09:38:11Z</time>
      </trkpt>
      <trkpt lat="43.7839" lon="7.14239">
        <ele>844.17504882812</ele>
        <time>2012-06-17T09:38:13Z</time>
      </trkpt>
      <trkpt lat="43.78381" lon="7.14232">
        <ele>842.73291015625</ele>
        <time>2012-06-17T09:38:16Z</time>
      </trkpt>
      <trkpt lat="43.78371" lon="7.1423">
        <ele>843.21337890625</ele>
        <time>2012-06-17T09:38:26Z</time>
      </trkpt>
      <trkpt lat="43.78371" lon="7.1423">
        <ele>842.73291015625</ele>
        <time>2012-06-17T09:39:09Z</time>
      </trkpt>
      <trkpt lat="43.78376" lon="7.14243">
        <ele>840.81005859375</ele>
        <time>2012-06-17T09:39:13Z</time>
      </trkpt>
      <trkpt lat="43.78401" lon="7.14278">
        <ele>836.484375</ele>
        <time>2012-06-17T09:39:21Z</time>
      </trkpt>
      <trkpt lat="43.78409" lon="7.14286">
        <ele>835.52294921875</ele>
        <time>2012-06-17T09:39:23Z</time>
      </trkpt>
      <trkpt lat="43.78422" lon="7.14299">
        <ele>834.0810546875</ele>
        <time>2012-06-17T09:39:26Z</time>
      </trkpt>
      <trkpt lat="43.78439" lon="7.14316">
        <ele>831.677734375</ele>
        <time>2012-06-17T09:39:30Z</time>
      </trkpt>
      <trkpt lat="43.78452" lon="7.14339">
        <ele>829.75512695312</ele>
        <time>2012-06-17T09:39:34Z</time>
      </trkpt>
      <trkpt lat="43.78457" lon="7.14349">
        <ele>827.83227539062</ele>
        <time>2012-06-17T09:39:36Z</time>
      </trkpt>
      <trkpt lat="43.78465" lon="7.14362">
        <ele>825.90966796875</ele>
        <time>2012-06-17T09:39:39Z</time>
      </trkpt>
      <trkpt lat="43.78477" lon="7.14388">
        <ele>823.50659179688</ele>
        <time>2012-06-17T09:39:44Z</time>
      </trkpt>
      <trkpt lat="43.78493" lon="7.14405">
        <ele>821.10327148438</ele>
        <time>2012-06-17T09:39:48Z</time>
      </trkpt>
      <trkpt lat="43.78523" lon="7.14463">
        <ele>817.73852539062</ele>
        <time>2012-06-17T09:39:57Z</time>
      </trkpt>
      <trkpt lat="43.78527" lon="7.14469">
        <ele>816.77734375</ele>
        <time>2012-06-17T09:39:58Z</time>
      </trkpt>
      <trkpt lat="43.78537" lon="7.14481">
        <ele>816.29663085938</ele>
        <time>2012-06-17T09:40:00Z</time>
      </trkpt>
      <trkpt lat="43.78548" lon="7.14488">
        <ele>815.81616210938</ele>
        <time>2012-06-17T09:40:02Z</time>
      </trkpt>
      <trkpt lat="43.78558" lon="7.14496">
        <ele>815.81616210938</ele>
        <time>2012-06-17T09:40:04Z</time>
      </trkpt>
      <trkpt lat="43.78569" lon="7.14511">
        <ele>815.81616210938</ele>
        <time>2012-06-17T09:40:07Z</time>
      </trkpt>
      <trkpt lat="43.78578" lon="7.14525">
        <ele>815.33544921875</ele>
        <time>2012-06-17T09:40:10Z</time>
      </trkpt>
      <trkpt lat="43.78602" lon="7.14555">
        <ele>812.45141601562</ele>
        <time>2012-06-17T09:40:15Z</time>
      </trkpt>
      <trkpt lat="43.78607" lon="7.14561">
        <ele>811.970703125</ele>
        <time>2012-06-17T09:40:16Z</time>
      </trkpt>
      <trkpt lat="43.78628" lon="7.14582">
        <ele>811.970703125</ele>
        <time>2012-06-17T09:40:20Z</time>
      </trkpt>
      <trkpt lat="43.7864" lon="7.14614">
        <ele>813.41284179688</ele>
        <time>2012-06-17T09:40:25Z</time>
      </trkpt>
      <trkpt lat="43.78642" lon="7.14631">
        <ele>813.41284179688</ele>
        <time>2012-06-17T09:40:28Z</time>
      </trkpt>
      <trkpt lat="43.78658" lon="7.1465">
        <ele>813.89331054688</ele>
        <time>2012-06-17T09:40:35Z</time>
      </trkpt>
      <trkpt lat="43.7867" lon="7.14675">
        <ele>815.33544921875</ele>
        <time>2012-06-17T09:40:51Z</time>
      </trkpt>
      <trkpt lat="43.78672" lon="7.14702">
        <ele>817.25805664062</ele>
        <time>2012-06-17T09:41:09Z</time>
      </trkpt>
      <trkpt lat="43.78673" lon="7.14707">
        <ele>817.25805664062</ele>
        <time>2012-06-17T09:41:23Z</time>
      </trkpt>
      <trkpt lat="43.78674" lon="7.14709">
        <ele>818.21923828125</ele>
        <time>2012-06-17T09:48:25Z</time>
      </trkpt>
      <trkpt lat="43.78678" lon="7.14717">
        <ele>819.1806640625</ele>
        <time>2012-06-17T09:48:33Z</time>
      </trkpt>
      <trkpt lat="43.78682" lon="7.14723">
        <ele>820.14184570312</ele>
        <time>2012-06-17T09:48:37Z</time>
      </trkpt>
      <trkpt lat="43.78688" lon="7.14745">
        <ele>823.02587890625</ele>
        <time>2012-06-17T09:48:49Z</time>
      </trkpt>
      <trkpt lat="43.78696" lon="7.14767">
        <ele>826.39038085938</ele>
        <time>2012-06-17T09:49:02Z</time>
      </trkpt>
      <trkpt lat="43.78697" lon="7.14775">
        <ele>827.83227539062</ele>
        <time>2012-06-17T09:49:17Z</time>
      </trkpt>
      <trkpt lat="43.78704" lon="7.14792">
        <ele>830.23583984375</ele>
        <time>2012-06-17T09:49:39Z</time>
      </trkpt>
      <trkpt lat="43.78705" lon="7.14795">
        <ele>831.197265625</ele>
        <time>2012-06-17T09:49:56Z</time>
      </trkpt>
      <trkpt lat="43.78715" lon="7.14814">
        <ele>834.0810546875</ele>
        <time>2012-06-17T09:50:21Z</time>
      </trkpt>
      <trkpt lat="43.78735" lon="7.14848">
        <ele>836.96484375</ele>
        <time>2012-06-17T09:50:44Z</time>
      </trkpt>
      <trkpt lat="43.78742" lon="7.14865">
        <ele>839.3681640625</ele>
        <time>2012-06-17T09:50:54Z</time>
      </trkpt>
      <trkpt lat="43.78746" lon="7.14869">
        <ele>839.84887695312</ele>
        <time>2012-06-17T09:50:57Z</time>
      </trkpt>
      <trkpt lat="43.78747" lon="7.14874">
        <ele>840.81005859375</ele>
        <time>2012-06-17T09:51:11Z</time>
      </trkpt>
      <trkpt lat="43.78753" lon="7.14888">
        <ele>842.25219726562</ele>
        <time>2012-06-17T09:51:33Z</time>
      </trkpt>
      <trkpt lat="43.78763" lon="7.14912">
        <ele>845.61694335938</ele>
        <time>2012-06-17T09:51:56Z</time>
      </trkpt>
      <trkpt lat="43.78774" lon="7.14936">
        <ele>848.50073242188</ele>
        <time>2012-06-17T09:52:18Z</time>
      </trkpt>
      <trkpt lat="43.78786" lon="7.14953">
        <ele>851.86547851562</ele>
        <time>2012-06-17T09:52:38Z</time>
      </trkpt>
      <trkpt lat="43.78792" lon="7.14975">
        <ele>854.26879882812</ele>
        <time>2012-06-17T09:52:55Z</time>
      </trkpt>
      <trkpt lat="43.788" lon="7.14982">
        <ele>855.22998046875</ele>
        <time>2012-06-17T09:53:12Z</time>
      </trkpt>
      <trkpt lat="43.78822" lon="7.15015">
        <ele>856.19116210938</ele>
        <time>2012-06-17T09:53:32Z</time>
      </trkpt>
      <trkpt lat="43.78839" lon="7.1503">
        <ele>858.59448242188</ele>
        <time>2012-06-17T09:53:45Z</time>
      </trkpt>
      <trkpt lat="43.78859" lon="7.15055">
        <ele>861.95947265625</ele>
        <time>2012-06-17T09:54:03Z</time>
      </trkpt>
      <trkpt lat="43.78876" lon="7.15081">
        <ele>864.84326171875</ele>
        <time>2012-06-17T09:54:20Z</time>
      </trkpt>
      <trkpt lat="43.78896" lon="7.15111">
        <ele>868.20776367188</ele>
        <time>2012-06-17T09:54:40Z</time>
      </trkpt>
      <trkpt lat="43.78895" lon="7.15111">
        <ele>868.6884765625</ele>
        <time>2012-06-17T09:55:01Z</time>
      </trkpt>
      <trkpt lat="43.78895" lon="7.15111">
        <ele>868.6884765625</ele>
        <time>2012-06-17T09:55:10Z</time>
      </trkpt>
      <trkpt lat="43.789" lon="7.15115">
        <ele>869.16918945312</ele>
        <time>2012-06-17T09:55:15Z</time>
      </trkpt>
      <trkpt lat="43.78917" lon="7.15144">
        <ele>872.05297851562</ele>
        <time>2012-06-17T09:55:33Z</time>
      </trkpt>
      <trkpt lat="43.78933" lon="7.15169">
        <ele>874.93701171875</ele>
        <time>2012-06-17T09:55:50Z</time>
      </trkpt>
      <trkpt lat="43.78951" lon="7.15193">
        <ele>876.85986328125</ele>
        <time>2012-06-17T09:56:09Z</time>
      </trkpt>
      <trkpt lat="43.78977" lon="7.1523">
        <ele>880.22436523438</ele>
        <time>2012-06-17T09:56:33Z</time>
      </trkpt>
      <trkpt lat="43.78992" lon="7.15259">
        <ele>881.66625976562</ele>
        <time>2012-06-17T09:56:50Z</time>
      </trkpt>
      <trkpt lat="43.79011" lon="7.1529">
        <ele>883.10815429688</ele>
        <time>2012-06-17T09:57:11Z</time>
      </trkpt>
      <trkpt lat="43.79022" lon="7.15309">
        <ele>883.5888671875</ele>
        <time>2012-06-17T09:58:09Z</time>
      </trkpt>
      <trkpt lat="43.79041" lon="7.15357">
        <ele>886.47290039062</ele>
        <time>2012-06-17T09:58:30Z</time>
      </trkpt>
      <trkpt lat="43.79047" lon="7.15381">
        <ele>888.3955078125</ele>
        <time>2012-06-17T09:58:42Z</time>
      </trkpt>
      <trkpt lat="43.79059" lon="7.15425">
        <ele>890.31811523438</ele>
        <time>2012-06-17T09:59:03Z</time>
      </trkpt>
      <trkpt lat="43.79078" lon="7.15479">
        <ele>891.279296875</ele>
        <time>2012-06-17T09:59:20Z</time>
      </trkpt>
      <trkpt lat="43.79107" lon="7.15556">
        <ele>891.76000976562</ele>
        <time>2012-06-17T09:59:36Z</time>
      </trkpt>
      <trkpt lat="43.79112" lon="7.1557">
        <ele>891.76000976562</ele>
        <time>2012-06-17T09:59:39Z</time>
      </trkpt>
      <trkpt lat="43.7912" lon="7.15592">
        <ele>889.83740234375</ele>
        <time>2012-06-17T09:59:43Z</time>
      </trkpt>
      <trkpt lat="43.79148" lon="7.15645">
        <ele>893.2021484375</ele>
        <time>2012-06-17T09:59:54Z</time>
      </trkpt>
      <trkpt lat="43.79154" lon="7.15668">
        <ele>892.7216796875</ele>
        <time>2012-06-17T10:00:01Z</time>
      </trkpt>
      <trkpt lat="43.79146" lon="7.15689">
        <ele>891.76000976562</ele>
        <time>2012-06-17T10:00:06Z</time>
      </trkpt>
      <trkpt lat="43.79113" lon="7.15711">
        <ele>893.68286132812</ele>
        <time>2012-06-17T10:00:21Z</time>
      </trkpt>
      <trkpt lat="43.79089" lon="7.15718">
        <ele>895.60546875</ele>
        <time>2012-06-17T10:00:34Z</time>
      </trkpt>
      <trkpt lat="43.79069" lon="7.15718">
        <ele>898.96997070312</ele>
        <time>2012-06-17T10:00:47Z</time>
      </trkpt>
      <trkpt lat="43.79062" lon="7.15717">
        <ele>899.93139648438</ele>
        <time>2012-06-17T10:00:51Z</time>
      </trkpt>
      <trkpt lat="43.79057" lon="7.15718">
        <ele>898.4892578125</ele>
        <time>2012-06-17T10:00:54Z</time>
      </trkpt>
      <trkpt lat="43.79053" lon="7.15719">
        <ele>901.85400390625</ele>
        <time>2012-06-17T10:00:57Z</time>
      </trkpt>
      <trkpt lat="43.7902" lon="7.15732">
        <ele>902.81518554688</ele>
        <time>2012-06-17T10:01:18Z</time>
      </trkpt>
      <trkpt lat="43.78995" lon="7.15732">
        <ele>905.69921875</ele>
        <time>2012-06-17T10:01:37Z</time>
      </trkpt>
      <trkpt lat="43.78973" lon="7.15715">
        <ele>908.58325195312</ele>
        <time>2012-06-17T10:01:57Z</time>
      </trkpt>
      <trkpt lat="43.78961" lon="7.15698">
        <ele>910.02514648438</ele>
        <time>2012-06-17T10:02:07Z</time>
      </trkpt>
      <trkpt lat="43.78956" lon="7.15698">
        <ele>910.505859375</ele>
        <time>2012-06-17T10:02:11Z</time>
      </trkpt>
      <trkpt lat="43.78947" lon="7.15698">
        <ele>911.94799804688</ele>
        <time>2012-06-17T10:02:27Z</time>
      </trkpt>
      <trkpt lat="43.78945" lon="7.15695">
        <ele>912.42846679688</ele>
        <time>2012-06-17T10:02:48Z</time>
      </trkpt>
      <trkpt lat="43.78944" lon="7.15694">
        <ele>912.9091796875</ele>
        <time>2012-06-17T10:02:50Z</time>
      </trkpt>
      <trkpt lat="43.78932" lon="7.15676">
        <ele>915.79321289062</ele>
        <time>2012-06-17T10:03:10Z</time>
      </trkpt>
      <trkpt lat="43.78922" lon="7.15668">
        <ele>917.23510742188</ele>
        <time>2012-06-17T10:03:27Z</time>
      </trkpt>
      <trkpt lat="43.78907" lon="7.15656">
        <ele>920.11889648438</ele>
        <time>2012-06-17T10:03:40Z</time>
      </trkpt>
      <trkpt lat="43.78884" lon="7.1564">
        <ele>923.48364257812</ele>
        <time>2012-06-17T10:03:58Z</time>
      </trkpt>
      <trkpt lat="43.78868" lon="7.15637">
        <ele>924.92578125</ele>
        <time>2012-06-17T10:04:10Z</time>
      </trkpt>
      <trkpt lat="43.78837" lon="7.15615">
        <ele>928.29028320312</ele>
        <time>2012-06-17T10:04:34Z</time>
      </trkpt>
      <trkpt lat="43.78806" lon="7.15604">
        <ele>930.69360351562</ele>
        <time>2012-06-17T10:04:55Z</time>
      </trkpt>
      <trkpt lat="43.78785" lon="7.1559">
        <ele>934.05810546875</ele>
        <time>2012-06-17T10:05:10Z</time>
      </trkpt>
      <trkpt lat="43.78782" lon="7.15586">
        <ele>934.53881835938</ele>
        <time>2012-06-17T10:05:13Z</time>
      </trkpt>
      <trkpt lat="43.78779" lon="7.15581">
        <ele>934.53881835938</ele>
        <time>2012-06-17T10:05:17Z</time>
      </trkpt>
      <trkpt lat="43.78764" lon="7.15578">
        <ele>935.01953125</ele>
        <time>2012-06-17T10:05:37Z</time>
      </trkpt>
      <trkpt lat="43.78763" lon="7.15577">
        <ele>934.53881835938</ele>
        <time>2012-06-17T10:06:14Z</time>
      </trkpt>
      <trkpt lat="43.78763" lon="7.15577">
        <ele>935.5</ele>
        <time>2012-06-17T10:08:21Z</time>
      </trkpt>
      <trkpt lat="43.7876" lon="7.15573">
        <ele>935.01953125</ele>
        <time>2012-06-17T10:08:25Z</time>
      </trkpt>
      <trkpt lat="43.78737" lon="7.15538">
        <ele>935.98071289062</ele>
        <time>2012-06-17T10:08:38Z</time>
      </trkpt>
      <trkpt lat="43.78723" lon="7.15531">
        <ele>933.57739257812</ele>
        <time>2012-06-17T10:08:43Z</time>
      </trkpt>
      <trkpt lat="43.78709" lon="7.15523">
        <ele>931.65478515625</ele>
        <time>2012-06-17T10:08:50Z</time>
      </trkpt>
      <trkpt lat="43.78687" lon="7.155">
        <ele>930.212890625</ele>
        <time>2012-06-17T10:08:55Z</time>
      </trkpt>
      <trkpt lat="43.78662" lon="7.1548">
        <ele>927.3291015625</ele>
        <time>2012-06-17T10:09:00Z</time>
      </trkpt>
      <trkpt lat="43.78628" lon="7.15467">
        <ele>926.36767578125</ele>
        <time>2012-06-17T10:09:06Z</time>
      </trkpt>
      <trkpt lat="43.7862" lon="7.15455">
        <ele>927.8095703125</ele>
        <time>2012-06-17T10:09:10Z</time>
      </trkpt>
      <trkpt lat="43.7859" lon="7.15438">
        <ele>927.3291015625</ele>
        <time>2012-06-17T10:09:23Z</time>
      </trkpt>
      <trkpt lat="43.78563" lon="7.15416">
        <ele>930.69360351562</ele>
        <time>2012-06-17T10:09:39Z</time>
      </trkpt>
      <trkpt lat="43.78536" lon="7.15382">
        <ele>933.0966796875</ele>
        <time>2012-06-17T10:10:00Z</time>
      </trkpt>
      <trkpt lat="43.78503" lon="7.15348">
        <ele>934.53881835938</ele>
        <time>2012-06-17T10:10:23Z</time>
      </trkpt>
      <trkpt lat="43.7849" lon="7.15338">
        <ele>935.01953125</ele>
        <time>2012-06-17T10:10:30Z</time>
      </trkpt>
      <trkpt lat="43.78479" lon="7.15328">
        <ele>934.53881835938</ele>
        <time>2012-06-17T10:10:35Z</time>
      </trkpt>
      <trkpt lat="43.7847" lon="7.15326">
        <ele>933.57739257812</ele>
        <time>2012-06-17T10:10:38Z</time>
      </trkpt>
      <trkpt lat="43.78443" lon="7.15299">
        <ele>931.17431640625</ele>
        <time>2012-06-17T10:10:46Z</time>
      </trkpt>
      <trkpt lat="43.78428" lon="7.15277">
        <ele>931.65478515625</ele>
        <time>2012-06-17T10:10:51Z</time>
      </trkpt>
      <trkpt lat="43.78413" lon="7.15271">
        <ele>931.65478515625</ele>
        <time>2012-06-17T10:10:55Z</time>
      </trkpt>
      <trkpt lat="43.78396" lon="7.1526">
        <ele>934.05810546875</ele>
        <time>2012-06-17T10:11:04Z</time>
      </trkpt>
      <trkpt lat="43.78371" lon="7.15243">
        <ele>935.5</ele>
        <time>2012-06-17T10:11:20Z</time>
      </trkpt>
      <trkpt lat="43.78363" lon="7.1524">
        <ele>936.46142578125</ele>
        <time>2012-06-17T10:11:26Z</time>
      </trkpt>
      <trkpt lat="43.78358" lon="7.15233">
        <ele>937.42260742188</ele>
        <time>2012-06-17T10:11:40Z</time>
      </trkpt>
      <trkpt lat="43.78358" lon="7.15232">
        <ele>937.42260742188</ele>
        <time>2012-06-17T10:17:59Z</time>
      </trkpt>
      <trkpt lat="43.7836" lon="7.15216">
        <ele>937.9033203125</ele>
        <time>2012-06-17T10:18:08Z</time>
      </trkpt>
      <trkpt lat="43.78355" lon="7.15204">
        <ele>937.9033203125</ele>
        <time>2012-06-17T10:18:13Z</time>
      </trkpt>
      <trkpt lat="43.7834" lon="7.15174">
        <ele>935.5</ele>
        <time>2012-06-17T10:18:23Z</time>
      </trkpt>
      <trkpt lat="43.78332" lon="7.15162">
        <ele>933.57739257812</ele>
        <time>2012-06-17T10:18:26Z</time>
      </trkpt>
      <trkpt lat="43.78325" lon="7.15151">
        <ele>933.0966796875</ele>
        <time>2012-06-17T10:18:28Z</time>
      </trkpt>
      <trkpt lat="43.78309" lon="7.15141">
        <ele>930.212890625</ele>
        <time>2012-06-17T10:18:31Z</time>
      </trkpt>
      <trkpt lat="43.7829" lon="7.15134">
        <ele>928.77099609375</ele>
        <time>2012-06-17T10:18:35Z</time>
      </trkpt>
      <trkpt lat="43.78276" lon="7.15124">
        <ele>925.88696289062</ele>
        <time>2012-06-17T10:18:38Z</time>
      </trkpt>
      <trkpt lat="43.78245" lon="7.151">
        <ele>922.52221679688</ele>
        <time>2012-06-17T10:18:45Z</time>
      </trkpt>
      <trkpt lat="43.78241" lon="7.15096">
        <ele>923.0029296875</ele>
        <time>2012-06-17T10:18:46Z</time>
      </trkpt>
      <trkpt lat="43.78225" lon="7.15083">
        <ele>920.11889648438</ele>
        <time>2012-06-17T10:18:50Z</time>
      </trkpt>
      <trkpt lat="43.78221" lon="7.15083">
        <ele>919.63842773438</ele>
        <time>2012-06-17T10:18:51Z</time>
      </trkpt>
      <trkpt lat="43.78211" lon="7.15087">
        <ele>919.63842773438</ele>
        <time>2012-06-17T10:18:54Z</time>
      </trkpt>
      <trkpt lat="43.78209" lon="7.15089">
        <ele>920.599609375</ele>
        <time>2012-06-17T10:18:56Z</time>
      </trkpt>
      <trkpt lat="43.78193" lon="7.15098">
        <ele>918.67700195312</ele>
        <time>2012-06-17T10:19:06Z</time>
      </trkpt>
      <trkpt lat="43.7819" lon="7.15102">
        <ele>918.67700195312</ele>
        <time>2012-06-17T10:19:07Z</time>
      </trkpt>
      <trkpt lat="43.78187" lon="7.15117">
        <ele>917.23510742188</ele>
        <time>2012-06-17T10:19:10Z</time>
      </trkpt>
      <trkpt lat="43.78174" lon="7.15134">
        <ele>914.35107421875</ele>
        <time>2012-06-17T10:19:14Z</time>
      </trkpt>
      <trkpt lat="43.78164" lon="7.15142">
        <ele>912.42846679688</ele>
        <time>2012-06-17T10:19:16Z</time>
      </trkpt>
      <trkpt lat="43.78132" lon="7.15152">
        <ele>910.98657226562</ele>
        <time>2012-06-17T10:19:21Z</time>
      </trkpt>
      <trkpt lat="43.78119" lon="7.15159">
        <ele>909.06396484375</ele>
        <time>2012-06-17T10:19:23Z</time>
      </trkpt>
      <trkpt lat="43.78113" lon="7.15161">
        <ele>908.10278320312</ele>
        <time>2012-06-17T10:19:24Z</time>
      </trkpt>
      <trkpt lat="43.78097" lon="7.1516">
        <ele>909.06396484375</ele>
        <time>2012-06-17T10:19:27Z</time>
      </trkpt>
      <trkpt lat="43.78073" lon="7.15173">
        <ele>906.1796875</ele>
        <time>2012-06-17T10:19:32Z</time>
      </trkpt>
      <trkpt lat="43.78036" lon="7.15165">
        <ele>902.33447265625</ele>
        <time>2012-06-17T10:19:38Z</time>
      </trkpt>
      <trkpt lat="43.78016" lon="7.15157">
        <ele>901.85400390625</ele>
        <time>2012-06-17T10:19:41Z</time>
      </trkpt>
      <trkpt lat="43.77996" lon="7.15159">
        <ele>898.96997070312</ele>
        <time>2012-06-17T10:19:44Z</time>
      </trkpt>
      <trkpt lat="43.77967" lon="7.15136">
        <ele>897.52807617188</ele>
        <time>2012-06-17T10:19:49Z</time>
      </trkpt>
      <trkpt lat="43.77954" lon="7.15099">
        <ele>898.4892578125</ele>
        <time>2012-06-17T10:19:54Z</time>
      </trkpt>
      <trkpt lat="43.77948" lon="7.15077">
        <ele>898.0087890625</ele>
        <time>2012-06-17T10:19:58Z</time>
      </trkpt>
      <trkpt lat="43.77942" lon="7.15054">
        <ele>897.52807617188</ele>
        <time>2012-06-17T10:20:02Z</time>
      </trkpt>
      <trkpt lat="43.77927" lon="7.15043">
        <ele>893.68286132812</ele>
        <time>2012-06-17T10:20:07Z</time>
      </trkpt>
      <trkpt lat="43.77918" lon="7.15038">
        <ele>891.279296875</ele>
        <time>2012-06-17T10:20:09Z</time>
      </trkpt>
      <trkpt lat="43.77899" lon="7.15038">
        <ele>888.3955078125</ele>
        <time>2012-06-17T10:20:12Z</time>
      </trkpt>
      <trkpt lat="43.77868" lon="7.15046">
        <ele>884.55029296875</ele>
        <time>2012-06-17T10:20:17Z</time>
      </trkpt>
      <trkpt lat="43.77851" lon="7.15049">
        <ele>883.5888671875</ele>
        <time>2012-06-17T10:20:20Z</time>
      </trkpt>
      <trkpt lat="43.77834" lon="7.1505">
        <ele>881.66625976562</ele>
        <time>2012-06-17T10:20:23Z</time>
      </trkpt>
      <trkpt lat="43.77828" lon="7.1505">
        <ele>880.705078125</ele>
        <time>2012-06-17T10:20:24Z</time>
      </trkpt>
      <trkpt lat="43.77816" lon="7.15052">
        <ele>879.74365234375</ele>
        <time>2012-06-17T10:20:26Z</time>
      </trkpt>
      <trkpt lat="43.77798" lon="7.15073">
        <ele>876.85986328125</ele>
        <time>2012-06-17T10:20:30Z</time>
      </trkpt>
      <trkpt lat="43.77788" lon="7.15084">
        <ele>875.89819335938</ele>
        <time>2012-06-17T10:20:32Z</time>
      </trkpt>
      <trkpt lat="43.7775" lon="7.15107">
        <ele>875.89819335938</ele>
        <time>2012-06-17T10:20:40Z</time>
      </trkpt>
      <trkpt lat="43.77736" lon="7.1513">
        <ele>875.89819335938</ele>
        <time>2012-06-17T10:20:45Z</time>
      </trkpt>
      <trkpt lat="43.77735" lon="7.15155">
        <ele>876.37915039062</ele>
        <time>2012-06-17T10:20:50Z</time>
      </trkpt>
      <trkpt lat="43.77718" lon="7.15186">
        <ele>876.85986328125</ele>
        <time>2012-06-17T10:21:03Z</time>
      </trkpt>
      <trkpt lat="43.77707" lon="7.15222">
        <ele>876.37915039062</ele>
        <time>2012-06-17T10:21:13Z</time>
      </trkpt>
      <trkpt lat="43.77709" lon="7.15263">
        <ele>876.37915039062</ele>
        <time>2012-06-17T10:21:21Z</time>
      </trkpt>
      <trkpt lat="43.77683" lon="7.15307">
        <ele>876.37915039062</ele>
        <time>2012-06-17T10:21:33Z</time>
      </trkpt>
      <trkpt lat="43.77661" lon="7.15341">
        <ele>877.82104492188</ele>
        <time>2012-06-17T10:21:47Z</time>
      </trkpt>
      <trkpt lat="43.7765" lon="7.15358">
        <ele>878.3017578125</ele>
        <time>2012-06-17T10:21:53Z</time>
      </trkpt>
      <trkpt lat="43.77629" lon="7.15352">
        <ele>879.26293945312</ele>
        <time>2012-06-17T10:22:04Z</time>
      </trkpt>
      <trkpt lat="43.77591" lon="7.15357">
        <ele>876.85986328125</ele>
        <time>2012-06-17T10:22:15Z</time>
      </trkpt>
      <trkpt lat="43.77571" lon="7.15364">
        <ele>875.41748046875</ele>
        <time>2012-06-17T10:22:20Z</time>
      </trkpt>
      <trkpt lat="43.77567" lon="7.15366">
        <ele>875.41748046875</ele>
        <time>2012-06-17T10:22:21Z</time>
      </trkpt>
      <trkpt lat="43.77555" lon="7.15372">
        <ele>874.93701171875</ele>
        <time>2012-06-17T10:22:24Z</time>
      </trkpt>
      <trkpt lat="43.77528" lon="7.15379">
        <ele>871.091796875</ele>
        <time>2012-06-17T10:22:29Z</time>
      </trkpt>
      <trkpt lat="43.77517" lon="7.15383">
        <ele>871.091796875</ele>
        <time>2012-06-17T10:22:31Z</time>
      </trkpt>
      <trkpt lat="43.775" lon="7.15381">
        <ele>869.64990234375</ele>
        <time>2012-06-17T10:22:34Z</time>
      </trkpt>
      <trkpt lat="43.7749" lon="7.15372">
        <ele>868.6884765625</ele>
        <time>2012-06-17T10:22:36Z</time>
      </trkpt>
      <trkpt lat="43.77477" lon="7.15356">
        <ele>870.13037109375</ele>
        <time>2012-06-17T10:22:40Z</time>
      </trkpt>
      <trkpt lat="43.77452" lon="7.15337">
        <ele>873.01440429688</ele>
        <time>2012-06-17T10:22:50Z</time>
      </trkpt>
      <trkpt lat="43.7745" lon="7.15335">
        <ele>873.4951171875</ele>
        <time>2012-06-17T10:22:51Z</time>
      </trkpt>
      <trkpt lat="43.77418" lon="7.15313">
        <ele>874.93701171875</ele>
        <time>2012-06-17T10:23:05Z</time>
      </trkpt>
      <trkpt lat="43.77406" lon="7.1531">
        <ele>875.41748046875</ele>
        <time>2012-06-17T10:23:10Z</time>
      </trkpt>
      <trkpt lat="43.77382" lon="7.15291">
        <ele>877.82104492188</ele>
        <time>2012-06-17T10:23:25Z</time>
      </trkpt>
      <trkpt lat="43.77359" lon="7.15282">
        <ele>880.705078125</ele>
        <time>2012-06-17T10:23:40Z</time>
      </trkpt>
      <trkpt lat="43.7733" lon="7.15266">
        <ele>883.10815429688</ele>
        <time>2012-06-17T10:24:00Z</time>
      </trkpt>
      <trkpt lat="43.77293" lon="7.15251">
        <ele>882.14697265625</ele>
        <time>2012-06-17T10:24:14Z</time>
      </trkpt>
      <trkpt lat="43.7729" lon="7.15251">
        <ele>882.14697265625</ele>
        <time>2012-06-17T10:24:15Z</time>
      </trkpt>
      <trkpt lat="43.77281" lon="7.15251">
        <ele>881.66625976562</ele>
        <time>2012-06-17T10:24:18Z</time>
      </trkpt>
      <trkpt lat="43.77232" lon="7.15282">
        <ele>883.10815429688</ele>
        <time>2012-06-17T10:24:36Z</time>
      </trkpt>
      <trkpt lat="43.77203" lon="7.15285">
        <ele>882.14697265625</ele>
        <time>2012-06-17T10:24:46Z</time>
      </trkpt>
      <trkpt lat="43.77179" lon="7.15267">
        <ele>885.03100585938</ele>
        <time>2012-06-17T10:25:00Z</time>
      </trkpt>
      <trkpt lat="43.77157" lon="7.15247">
        <ele>888.3955078125</ele>
        <time>2012-06-17T10:25:16Z</time>
      </trkpt>
      <trkpt lat="43.7714" lon="7.15214">
        <ele>889.83740234375</ele>
        <time>2012-06-17T10:25:33Z</time>
      </trkpt>
      <trkpt lat="43.77117" lon="7.15171">
        <ele>888.3955078125</ele>
        <time>2012-06-17T10:25:46Z</time>
      </trkpt>
      <trkpt lat="43.77107" lon="7.15147">
        <ele>887.91479492188</ele>
        <time>2012-06-17T10:25:51Z</time>
      </trkpt>
      <trkpt lat="43.77098" lon="7.15131">
        <ele>886.47290039062</ele>
        <time>2012-06-17T10:25:54Z</time>
      </trkpt>
      <trkpt lat="43.77088" lon="7.15112">
        <ele>885.51147460938</ele>
        <time>2012-06-17T10:25:57Z</time>
      </trkpt>
      <trkpt lat="43.77076" lon="7.15096">
        <ele>886.95336914062</ele>
        <time>2012-06-17T10:26:01Z</time>
      </trkpt>
      <trkpt lat="43.77051" lon="7.15052">
        <ele>884.06958007812</ele>
        <time>2012-06-17T10:26:13Z</time>
      </trkpt>
      <trkpt lat="43.77049" lon="7.15048">
        <ele>884.06958007812</ele>
        <time>2012-06-17T10:26:14Z</time>
      </trkpt>
      <trkpt lat="43.77042" lon="7.15037">
        <ele>882.62768554688</ele>
        <time>2012-06-17T10:26:17Z</time>
      </trkpt>
      <trkpt lat="43.77023" lon="7.15022">
        <ele>880.22436523438</ele>
        <time>2012-06-17T10:26:22Z</time>
      </trkpt>
      <trkpt lat="43.77013" lon="7.15017">
        <ele>878.3017578125</ele>
        <time>2012-06-17T10:26:24Z</time>
      </trkpt>
      <trkpt lat="43.76988" lon="7.15017">
        <ele>877.34057617188</ele>
        <time>2012-06-17T10:26:29Z</time>
      </trkpt>
      <trkpt lat="43.76966" lon="7.15028">
        <ele>877.34057617188</ele>
        <time>2012-06-17T10:26:34Z</time>
      </trkpt>
      <trkpt lat="43.76938" lon="7.1504">
        <ele>880.22436523438</ele>
        <time>2012-06-17T10:26:43Z</time>
      </trkpt>
      <trkpt lat="43.76893" lon="7.1507">
        <ele>878.3017578125</ele>
        <time>2012-06-17T10:26:58Z</time>
      </trkpt>
      <trkpt lat="43.76866" lon="7.15069">
        <ele>875.89819335938</ele>
        <time>2012-06-17T10:27:05Z</time>
      </trkpt>
      <trkpt lat="43.7685" lon="7.15064">
        <ele>874.45629882812</ele>
        <time>2012-06-17T10:27:09Z</time>
      </trkpt>
      <trkpt lat="43.76824" lon="7.15034">
        <ele>872.05297851562</ele>
        <time>2012-06-17T10:27:17Z</time>
      </trkpt>
      <trkpt lat="43.76809" lon="7.1503">
        <ele>868.20776367188</ele>
        <time>2012-06-17T10:27:21Z</time>
      </trkpt>
      <trkpt lat="43.76797" lon="7.15026">
        <ele>866.76586914062</ele>
        <time>2012-06-17T10:27:23Z</time>
      </trkpt>
      <trkpt lat="43.76783" lon="7.15022">
        <ele>866.28515625</ele>
        <time>2012-06-17T10:27:26Z</time>
      </trkpt>
      <trkpt lat="43.76762" lon="7.1502">
        <ele>866.28515625</ele>
        <time>2012-06-17T10:27:31Z</time>
      </trkpt>
      <trkpt lat="43.76748" lon="7.15005">
        <ele>865.32397460938</ele>
        <time>2012-06-17T10:27:35Z</time>
      </trkpt>
      <trkpt lat="43.76739" lon="7.14997">
        <ele>866.76586914062</ele>
        <time>2012-06-17T10:27:38Z</time>
      </trkpt>
      <trkpt lat="43.76732" lon="7.14975">
        <ele>867.24658203125</ele>
        <time>2012-06-17T10:27:47Z</time>
      </trkpt>
      <trkpt lat="43.7673" lon="7.14971">
        <ele>867.24658203125</ele>
        <time>2012-06-17T10:27:49Z</time>
      </trkpt>
      <trkpt lat="43.76728" lon="7.14964">
        <ele>867.24658203125</ele>
        <time>2012-06-17T10:27:52Z</time>
      </trkpt>
      <trkpt lat="43.76718" lon="7.14953">
        <ele>868.6884765625</ele>
        <time>2012-06-17T10:28:04Z</time>
      </trkpt>
      <trkpt lat="43.76717" lon="7.1495">
        <ele>869.16918945312</ele>
        <time>2012-06-17T10:28:17Z</time>
      </trkpt>
      <trkpt lat="43.76711" lon="7.14947">
        <ele>868.20776367188</ele>
        <time>2012-06-17T10:28:28Z</time>
      </trkpt>
      <trkpt lat="43.76708" lon="7.14947">
        <ele>868.6884765625</ele>
        <time>2012-06-17T10:28:38Z</time>
      </trkpt>
      <trkpt lat="43.76668" lon="7.14947">
        <ele>864.36254882812</ele>
        <time>2012-06-17T10:28:52Z</time>
      </trkpt>
      <trkpt lat="43.76643" lon="7.14945">
        <ele>860.998046875</ele>
        <time>2012-06-17T10:29:00Z</time>
      </trkpt>
      <trkpt lat="43.76627" lon="7.1495">
        <ele>860.51733398438</ele>
        <time>2012-06-17T10:29:04Z</time>
      </trkpt>
      <trkpt lat="43.76622" lon="7.14945">
        <ele>859.55590820312</ele>
        <time>2012-06-17T10:29:07Z</time>
      </trkpt>
      <trkpt lat="43.76607" lon="7.14942">
        <ele>859.0751953125</ele>
        <time>2012-06-17T10:29:12Z</time>
      </trkpt>
      <trkpt lat="43.76603" lon="7.14941">
        <ele>858.59448242188</ele>
        <time>2012-06-17T10:29:14Z</time>
      </trkpt>
      <trkpt lat="43.76576" lon="7.14941">
        <ele>854.74926757812</ele>
        <time>2012-06-17T10:29:25Z</time>
      </trkpt>
      <trkpt lat="43.76567" lon="7.14944">
        <ele>851.384765625</ele>
        <time>2012-06-17T10:29:28Z</time>
      </trkpt>
      <trkpt lat="43.76548" lon="7.14948">
        <ele>848.02026367188</ele>
        <time>2012-06-17T10:29:34Z</time>
      </trkpt>
      <trkpt lat="43.76545" lon="7.14948">
        <ele>847.05883789062</ele>
        <time>2012-06-17T10:29:35Z</time>
      </trkpt>
      <trkpt lat="43.76526" lon="7.14954">
        <ele>843.69409179688</ele>
        <time>2012-06-17T10:29:42Z</time>
      </trkpt>
      <trkpt lat="43.76512" lon="7.14955">
        <ele>840.32958984375</ele>
        <time>2012-06-17T10:29:47Z</time>
      </trkpt>
      <trkpt lat="43.76511" lon="7.14955">
        <ele>840.81005859375</ele>
        <time>2012-06-17T10:30:00Z</time>
      </trkpt>
      <trkpt lat="43.76504" lon="7.14957">
        <ele>837.44555664062</ele>
        <time>2012-06-17T10:30:38Z</time>
      </trkpt>
      <trkpt lat="43.76491" lon="7.14953">
        <ele>836.00366210938</ele>
        <time>2012-06-17T10:30:42Z</time>
      </trkpt>
      <trkpt lat="43.7648" lon="7.14949">
        <ele>834.0810546875</ele>
        <time>2012-06-17T10:30:45Z</time>
      </trkpt>
      <trkpt lat="43.7647" lon="7.14947">
        <ele>832.15844726562</ele>
        <time>2012-06-17T10:30:48Z</time>
      </trkpt>
      <trkpt lat="43.76449" lon="7.14945">
        <ele>828.31323242188</ele>
        <time>2012-06-17T10:30:53Z</time>
      </trkpt>
      <trkpt lat="43.76446" lon="7.14943">
        <ele>828.31323242188</ele>
        <time>2012-06-17T10:30:54Z</time>
      </trkpt>
      <trkpt lat="43.76433" lon="7.1493">
        <ele>826.87109375</ele>
        <time>2012-06-17T10:31:04Z</time>
      </trkpt>
      <trkpt lat="43.76422" lon="7.14913">
        <ele>825.42895507812</ele>
        <time>2012-06-17T10:31:08Z</time>
      </trkpt>
      <trkpt lat="43.76411" lon="7.14903">
        <ele>823.50659179688</ele>
        <time>2012-06-17T10:31:11Z</time>
      </trkpt>
      <trkpt lat="43.76402" lon="7.14899">
        <ele>822.54516601562</ele>
        <time>2012-06-17T10:31:13Z</time>
      </trkpt>
      <trkpt lat="43.76397" lon="7.14896">
        <ele>823.98706054688</ele>
        <time>2012-06-17T10:31:20Z</time>
      </trkpt>
      <trkpt lat="43.764" lon="7.14894">
        <ele>823.98706054688</ele>
        <time>2012-06-17T10:31:38Z</time>
      </trkpt>
      <trkpt lat="43.76418" lon="7.14885">
        <ele>823.50659179688</ele>
        <time>2012-06-17T10:32:25Z</time>
      </trkpt>
      <trkpt lat="43.76426" lon="7.14878">
        <ele>823.02587890625</ele>
        <time>2012-06-17T10:32:28Z</time>
      </trkpt>
      <trkpt lat="43.76432" lon="7.14876">
        <ele>823.02587890625</ele>
        <time>2012-06-17T10:32:30Z</time>
      </trkpt>
      <trkpt lat="43.76465" lon="7.1484">
        <ele>822.064453125</ele>
        <time>2012-06-17T10:32:42Z</time>
      </trkpt>
      <trkpt lat="43.76471" lon="7.14834">
        <ele>821.10327148438</ele>
        <time>2012-06-17T10:32:44Z</time>
      </trkpt>
      <trkpt lat="43.76482" lon="7.14829">
        <ele>819.66137695312</ele>
        <time>2012-06-17T10:32:47Z</time>
      </trkpt>
      <trkpt lat="43.76497" lon="7.14817">
        <ele>818.69995117188</ele>
        <time>2012-06-17T10:32:51Z</time>
      </trkpt>
      <trkpt lat="43.76505" lon="7.14809">
        <ele>817.73852539062</ele>
        <time>2012-06-17T10:32:53Z</time>
      </trkpt>
      <trkpt lat="43.76532" lon="7.14785">
        <ele>815.81616210938</ele>
        <time>2012-06-17T10:33:01Z</time>
      </trkpt>
      <trkpt lat="43.76539" lon="7.14779">
        <ele>814.85473632812</ele>
        <time>2012-06-17T10:33:03Z</time>
      </trkpt>
      <trkpt lat="43.76556" lon="7.14768">
        <ele>812.93212890625</ele>
        <time>2012-06-17T10:33:12Z</time>
      </trkpt>
      <trkpt lat="43.76586" lon="7.14762">
        <ele>811.970703125</ele>
        <time>2012-06-17T10:33:22Z</time>
      </trkpt>
      <trkpt lat="43.76595" lon="7.14764">
        <ele>813.41284179688</ele>
        <time>2012-06-17T10:33:31Z</time>
      </trkpt>
      <trkpt lat="43.76601" lon="7.14759">
        <ele>812.93212890625</ele>
        <time>2012-06-17T10:33:35Z</time>
      </trkpt>
      <trkpt lat="43.76617" lon="7.14739">
        <ele>809.5673828125</ele>
        <time>2012-06-17T10:33:43Z</time>
      </trkpt>
      <trkpt lat="43.76637" lon="7.14725">
        <ele>809.5673828125</ele>
        <time>2012-06-17T10:33:52Z</time>
      </trkpt>
      <trkpt lat="43.76654" lon="7.1471">
        <ele>807.64477539062</ele>
        <time>2012-06-17T10:33:58Z</time>
      </trkpt>
      <trkpt lat="43.7669" lon="7.14689">
        <ele>804.7607421875</ele>
        <time>2012-06-17T10:34:10Z</time>
      </trkpt>
      <trkpt lat="43.7672" lon="7.1468">
        <ele>801.876953125</ele>
        <time>2012-06-17T10:34:17Z</time>
      </trkpt>
      <trkpt lat="43.76726" lon="7.14676">
        <ele>800.43505859375</ele>
        <time>2012-06-17T10:34:19Z</time>
      </trkpt>
      <trkpt lat="43.76745" lon="7.14672">
        <ele>797.55102539062</ele>
        <time>2012-06-17T10:34:23Z</time>
      </trkpt>
      <trkpt lat="43.7677" lon="7.14672">
        <ele>794.18627929688</ele>
        <time>2012-06-17T10:34:28Z</time>
      </trkpt>
      <trkpt lat="43.76776" lon="7.14673">
        <ele>794.18627929688</ele>
        <time>2012-06-17T10:34:29Z</time>
      </trkpt>
      <trkpt lat="43.7678" lon="7.14675">
        <ele>793.70556640625</ele>
        <time>2012-06-17T10:34:30Z</time>
      </trkpt>
      <trkpt lat="43.76806" lon="7.14681">
        <ele>790.82153320312</ele>
        <time>2012-06-17T10:34:36Z</time>
      </trkpt>
      <trkpt lat="43.76814" lon="7.14682">
        <ele>789.37963867188</ele>
        <time>2012-06-17T10:34:44Z</time>
      </trkpt>
      <trkpt lat="43.76816" lon="7.14687">
        <ele>789.37963867188</ele>
        <time>2012-06-17T10:34:56Z</time>
      </trkpt>
      <trkpt lat="43.76817" lon="7.14687">
        <ele>788.89916992188</ele>
        <time>2012-06-17T10:35:05Z</time>
      </trkpt>
      <trkpt lat="43.7683" lon="7.14679">
        <ele>785.53442382812</ele>
        <time>2012-06-17T10:35:10Z</time>
      </trkpt>
      <trkpt lat="43.76853" lon="7.14652">
        <ele>782.169921875</ele>
        <time>2012-06-17T10:35:18Z</time>
      </trkpt>
      <trkpt lat="43.76856" lon="7.14648">
        <ele>781.20874023438</ele>
        <time>2012-06-17T10:35:19Z</time>
      </trkpt>
      <trkpt lat="43.76865" lon="7.14639">
        <ele>779.76635742188</ele>
        <time>2012-06-17T10:35:22Z</time>
      </trkpt>
      <trkpt lat="43.76875" lon="7.14627">
        <ele>778.32446289062</ele>
        <time>2012-06-17T10:35:26Z</time>
      </trkpt>
      <trkpt lat="43.76891" lon="7.14611">
        <ele>775.4404296875</ele>
        <time>2012-06-17T10:35:31Z</time>
      </trkpt>
      <trkpt lat="43.76904" lon="7.14597">
        <ele>772.07592773438</ele>
        <time>2012-06-17T10:35:37Z</time>
      </trkpt>
      <trkpt lat="43.76909" lon="7.1459">
        <ele>770.63403320312</ele>
        <time>2012-06-17T10:35:39Z</time>
      </trkpt>
      <trkpt lat="43.76936" lon="7.14571">
        <ele>766.78881835938</ele>
        <time>2012-06-17T10:35:45Z</time>
      </trkpt>
      <trkpt lat="43.76952" lon="7.1456">
        <ele>763.42407226562</ele>
        <time>2012-06-17T10:35:49Z</time>
      </trkpt>
      <trkpt lat="43.76958" lon="7.14549">
        <ele>762.943359375</ele>
        <time>2012-06-17T10:35:52Z</time>
      </trkpt>
      <trkpt lat="43.76967" lon="7.14539">
        <ele>761.98217773438</ele>
        <time>2012-06-17T10:35:57Z</time>
      </trkpt>
      <trkpt lat="43.76975" lon="7.14535">
        <ele>762.46264648438</ele>
        <time>2012-06-17T10:36:01Z</time>
      </trkpt>
      <trkpt lat="43.76988" lon="7.14525">
        <ele>761.50146484375</ele>
        <time>2012-06-17T10:36:11Z</time>
      </trkpt>
      <trkpt lat="43.77008" lon="7.14513">
        <ele>760.5400390625</ele>
        <time>2012-06-17T10:36:25Z</time>
      </trkpt>
      <trkpt lat="43.77035" lon="7.14501">
        <ele>760.05932617188</ele>
        <time>2012-06-17T10:36:32Z</time>
      </trkpt>
      <trkpt lat="43.77046" lon="7.14499">
        <ele>760.05932617188</ele>
        <time>2012-06-17T10:36:35Z</time>
      </trkpt>
      <trkpt lat="43.77057" lon="7.14489">
        <ele>758.61743164062</ele>
        <time>2012-06-17T10:36:45Z</time>
      </trkpt>
      <trkpt lat="43.77064" lon="7.1447">
        <ele>757.17553710938</ele>
        <time>2012-06-17T10:36:58Z</time>
      </trkpt>
      <trkpt lat="43.77068" lon="7.14446">
        <ele>756.21411132812</ele>
        <time>2012-06-17T10:37:04Z</time>
      </trkpt>
      <trkpt lat="43.77063" lon="7.14434">
        <ele>756.69482421875</ele>
        <time>2012-06-17T10:37:07Z</time>
      </trkpt>
      <trkpt lat="43.77052" lon="7.14426">
        <ele>755.73364257812</ele>
        <time>2012-06-17T10:37:11Z</time>
      </trkpt>
      <trkpt lat="43.77048" lon="7.14426">
        <ele>756.69482421875</ele>
        <time>2012-06-17T10:37:13Z</time>
      </trkpt>
      <trkpt lat="43.7702" lon="7.14446">
        <ele>754.29174804688</ele>
        <time>2012-06-17T10:37:26Z</time>
      </trkpt>
      <trkpt lat="43.77008" lon="7.14456">
        <ele>753.81103515625</ele>
        <time>2012-06-17T10:37:30Z</time>
      </trkpt>
      <trkpt lat="43.76981" lon="7.14471">
        <ele>750.44653320312</ele>
        <time>2012-06-17T10:37:37Z</time>
      </trkpt>
      <trkpt lat="43.76977" lon="7.14472">
        <ele>750.44653320312</ele>
        <time>2012-06-17T10:37:38Z</time>
      </trkpt>
      <trkpt lat="43.7695" lon="7.14474">
        <ele>748.52368164062</ele>
        <time>2012-06-17T10:37:44Z</time>
      </trkpt>
      <trkpt lat="43.76921" lon="7.14481">
        <ele>743.71704101562</ele>
        <time>2012-06-17T10:37:49Z</time>
      </trkpt>
      <trkpt lat="43.76908" lon="7.14484">
        <ele>743.236328125</ele>
        <time>2012-06-17T10:37:51Z</time>
      </trkpt>
      <trkpt lat="43.76901" lon="7.14486">
        <ele>742.755859375</ele>
        <time>2012-06-17T10:37:52Z</time>
      </trkpt>
      <trkpt lat="43.76856" lon="7.14485">
        <ele>739.39111328125</ele>
        <time>2012-06-17T10:37:59Z</time>
      </trkpt>
      <trkpt lat="43.76849" lon="7.14483">
        <ele>739.39111328125</ele>
        <time>2012-06-17T10:38:00Z</time>
      </trkpt>
      <trkpt lat="43.76822" lon="7.1448">
        <ele>736.02661132812</ele>
        <time>2012-06-17T10:38:04Z</time>
      </trkpt>
      <trkpt lat="43.76796" lon="7.14478">
        <ele>732.662109375</ele>
        <time>2012-06-17T10:38:08Z</time>
      </trkpt>
      <trkpt lat="43.76762" lon="7.14464">
        <ele>729.29711914062</ele>
        <time>2012-06-17T10:38:17Z</time>
      </trkpt>
      <trkpt lat="43.76742" lon="7.1447">
        <ele>726.89404296875</ele>
        <time>2012-06-17T10:38:25Z</time>
      </trkpt>
      <trkpt lat="43.76722" lon="7.14458">
        <ele>723.52954101562</ele>
        <time>2012-06-17T10:38:42Z</time>
      </trkpt>
      <trkpt lat="43.76719" lon="7.14456">
        <ele>723.048828125</ele>
        <time>2012-06-17T10:38:43Z</time>
      </trkpt>
      <trkpt lat="43.76698" lon="7.14449">
        <ele>719.20361328125</ele>
        <time>2012-06-17T10:38:48Z</time>
      </trkpt>
      <trkpt lat="43.7668" lon="7.14442">
        <ele>715.8388671875</ele>
        <time>2012-06-17T10:38:52Z</time>
      </trkpt>
      <trkpt lat="43.76674" lon="7.1444">
        <ele>715.8388671875</ele>
        <time>2012-06-17T10:38:53Z</time>
      </trkpt>
      <trkpt lat="43.76652" lon="7.14439">
        <ele>711.99365234375</ele>
        <time>2012-06-17T10:38:57Z</time>
      </trkpt>
      <trkpt lat="43.76635" lon="7.14437">
        <ele>710.07080078125</ele>
        <time>2012-06-17T10:39:00Z</time>
      </trkpt>
      <trkpt lat="43.76604" lon="7.14436">
        <ele>707.18701171875</ele>
        <time>2012-06-17T10:39:05Z</time>
      </trkpt>
      <trkpt lat="43.76585" lon="7.14441">
        <ele>705.7451171875</ele>
        <time>2012-06-17T10:39:08Z</time>
      </trkpt>
      <trkpt lat="43.76564" lon="7.14442">
        <ele>703.341796875</ele>
        <time>2012-06-17T10:39:11Z</time>
      </trkpt>
      <trkpt lat="43.76557" lon="7.14443">
        <ele>701.89990234375</ele>
        <time>2012-06-17T10:39:12Z</time>
      </trkpt>
      <trkpt lat="43.76512" lon="7.14453">
        <ele>699.49633789062</ele>
        <time>2012-06-17T10:39:20Z</time>
      </trkpt>
      <trkpt lat="43.76495" lon="7.14461">
        <ele>696.61254882812</ele>
        <time>2012-06-17T10:39:23Z</time>
      </trkpt>
      <trkpt lat="43.76484" lon="7.14464">
        <ele>694.68969726562</ele>
        <time>2012-06-17T10:39:25Z</time>
      </trkpt>
      <trkpt lat="43.76465" lon="7.14465">
        <ele>691.3251953125</ele>
        <time>2012-06-17T10:39:28Z</time>
      </trkpt>
      <trkpt lat="43.76438" lon="7.14462">
        <ele>689.40258789062</ele>
        <time>2012-06-17T10:39:32Z</time>
      </trkpt>
      <trkpt lat="43.76415" lon="7.14451">
        <ele>687.47998046875</ele>
        <time>2012-06-17T10:39:36Z</time>
      </trkpt>
      <trkpt lat="43.76375" lon="7.1445">
        <ele>685.55737304688</ele>
        <time>2012-06-17T10:39:46Z</time>
      </trkpt>
      <trkpt lat="43.76337" lon="7.14458">
        <ele>684.11547851562</ele>
        <time>2012-06-17T10:40:00Z</time>
      </trkpt>
      <trkpt lat="43.76313" lon="7.14459">
        <ele>683.15380859375</ele>
        <time>2012-06-17T10:40:12Z</time>
      </trkpt>
      <trkpt lat="43.76313" lon="7.14459">
        <ele>683.15380859375</ele>
        <time>2012-06-17T10:40:21Z</time>
      </trkpt>
      <trkpt lat="43.76301" lon="7.14451">
        <ele>681.7119140625</ele>
        <time>2012-06-17T10:40:27Z</time>
      </trkpt>
      <trkpt lat="43.76282" lon="7.14443">
        <ele>679.78930664062</ele>
        <time>2012-06-17T10:40:31Z</time>
      </trkpt>
      <trkpt lat="43.76254" lon="7.14439">
        <ele>677.86669921875</ele>
        <time>2012-06-17T10:40:36Z</time>
      </trkpt>
      <trkpt lat="43.76238" lon="7.14435">
        <ele>677.38623046875</ele>
        <time>2012-06-17T10:40:39Z</time>
      </trkpt>
      <trkpt lat="43.76216" lon="7.14425">
        <ele>675.46337890625</ele>
        <time>2012-06-17T10:40:43Z</time>
      </trkpt>
      <trkpt lat="43.76197" lon="7.14418">
        <ele>674.50219726562</ele>
        <time>2012-06-17T10:40:46Z</time>
      </trkpt>
      <trkpt lat="43.76177" lon="7.14416">
        <ele>673.541015625</ele>
        <time>2012-06-17T10:40:49Z</time>
      </trkpt>
      <trkpt lat="43.76152" lon="7.14408">
        <ele>673.06030273438</ele>
        <time>2012-06-17T10:40:53Z</time>
      </trkpt>
      <trkpt lat="43.76133" lon="7.14395">
        <ele>671.1376953125</ele>
        <time>2012-06-17T10:40:57Z</time>
      </trkpt>
      <trkpt lat="43.76112" lon="7.14385">
        <ele>670.65698242188</ele>
        <time>2012-06-17T10:41:01Z</time>
      </trkpt>
      <trkpt lat="43.76091" lon="7.14367">
        <ele>667.77270507812</ele>
        <time>2012-06-17T10:41:05Z</time>
      </trkpt>
      <trkpt lat="43.76061" lon="7.14345">
        <ele>664.88891601562</ele>
        <time>2012-06-17T10:41:10Z</time>
      </trkpt>
      <trkpt lat="43.76055" lon="7.1434">
        <ele>664.88891601562</ele>
        <time>2012-06-17T10:41:11Z</time>
      </trkpt>
      <trkpt lat="43.76033" lon="7.14325">
        <ele>662.00512695312</ele>
        <time>2012-06-17T10:41:14Z</time>
      </trkpt>
      <trkpt lat="43.76001" lon="7.14314">
        <ele>661.04370117188</ele>
        <time>2012-06-17T10:41:18Z</time>
      </trkpt>
      <trkpt lat="43.75969" lon="7.14311">
        <ele>657.67919921875</ele>
        <time>2012-06-17T10:41:22Z</time>
      </trkpt>
      <trkpt lat="43.75954" lon="7.14311">
        <ele>655.75659179688</ele>
        <time>2012-06-17T10:41:24Z</time>
      </trkpt>
      <trkpt lat="43.7594" lon="7.14312">
        <ele>655.75659179688</ele>
        <time>2012-06-17T10:41:26Z</time>
      </trkpt>
      <trkpt lat="43.75922" lon="7.14309">
        <ele>653.833984375</ele>
        <time>2012-06-17T10:41:29Z</time>
      </trkpt>
      <trkpt lat="43.7591" lon="7.14304">
        <ele>652.87255859375</ele>
        <time>2012-06-17T10:41:31Z</time>
      </trkpt>
      <trkpt lat="43.75904" lon="7.14303">
        <ele>652.87255859375</ele>
        <time>2012-06-17T10:41:32Z</time>
      </trkpt>
      <trkpt lat="43.75894" lon="7.14303">
        <ele>651.9111328125</ele>
        <time>2012-06-17T10:41:34Z</time>
      </trkpt>
      <trkpt lat="43.75885" lon="7.14296">
        <ele>653.833984375</ele>
        <time>2012-06-17T10:41:38Z</time>
      </trkpt>
      <trkpt lat="43.75884" lon="7.14295">
        <ele>654.31469726562</ele>
        <time>2012-06-17T10:41:39Z</time>
      </trkpt>
      <trkpt lat="43.75878" lon="7.14297">
        <ele>653.35327148438</ele>
        <time>2012-06-17T10:41:44Z</time>
      </trkpt>
      <trkpt lat="43.75856" lon="7.14302">
        <ele>650.94970703125</ele>
        <time>2012-06-17T10:41:52Z</time>
      </trkpt>
      <trkpt lat="43.75831" lon="7.14305">
        <ele>649.98852539062</ele>
        <time>2012-06-17T10:41:59Z</time>
      </trkpt>
      <trkpt lat="43.75808" lon="7.14316">
        <ele>648.06591796875</ele>
        <time>2012-06-17T10:42:04Z</time>
      </trkpt>
      <trkpt lat="43.75795" lon="7.14325">
        <ele>647.58520507812</ele>
        <time>2012-06-17T10:42:07Z</time>
      </trkpt>
      <trkpt lat="43.75783" lon="7.1433">
        <ele>646.14331054688</ele>
        <time>2012-06-17T10:42:09Z</time>
      </trkpt>
      <trkpt lat="43.75771" lon="7.14332">
        <ele>645.18188476562</ele>
        <time>2012-06-17T10:42:11Z</time>
      </trkpt>
      <trkpt lat="43.75755" lon="7.14332">
        <ele>643.73999023438</ele>
        <time>2012-06-17T10:42:14Z</time>
      </trkpt>
      <trkpt lat="43.75728" lon="7.14327">
        <ele>642.77880859375</ele>
        <time>2012-06-17T10:42:19Z</time>
      </trkpt>
      <trkpt lat="43.75713" lon="7.1432">
        <ele>641.33666992188</ele>
        <time>2012-06-17T10:42:22Z</time>
      </trkpt>
      <trkpt lat="43.75698" lon="7.14314">
        <ele>639.89477539062</ele>
        <time>2012-06-17T10:42:25Z</time>
      </trkpt>
      <trkpt lat="43.75687" lon="7.14314">
        <ele>638.93359375</ele>
        <time>2012-06-17T10:42:27Z</time>
      </trkpt>
      <trkpt lat="43.7567" lon="7.14317">
        <ele>635.56860351562</ele>
        <time>2012-06-17T10:42:31Z</time>
      </trkpt>
      <trkpt lat="43.7566" lon="7.1432">
        <ele>634.12670898438</ele>
        <time>2012-06-17T10:42:33Z</time>
      </trkpt>
      <trkpt lat="43.75643" lon="7.1432">
        <ele>631.24291992188</ele>
        <time>2012-06-17T10:42:37Z</time>
      </trkpt>
      <trkpt lat="43.75634" lon="7.14321">
        <ele>629.32006835938</ele>
        <time>2012-06-17T10:42:39Z</time>
      </trkpt>
      <trkpt lat="43.75617" lon="7.14325">
        <ele>625.95556640625</ele>
        <time>2012-06-17T10:42:44Z</time>
      </trkpt>
      <trkpt lat="43.75599" lon="7.1433">
        <ele>622.1103515625</ele>
        <time>2012-06-17T10:42:49Z</time>
      </trkpt>
      <trkpt lat="43.75588" lon="7.14333">
        <ele>620.66845703125</ele>
        <time>2012-06-17T10:42:52Z</time>
      </trkpt>
      <trkpt lat="43.75584" lon="7.14333">
        <ele>619.70703125</ele>
        <time>2012-06-17T10:42:53Z</time>
      </trkpt>
      <trkpt lat="43.75576" lon="7.14332">
        <ele>618.26489257812</ele>
        <time>2012-06-17T10:42:55Z</time>
      </trkpt>
      <trkpt lat="43.75554" lon="7.14331">
        <ele>615.38110351562</ele>
        <time>2012-06-17T10:43:00Z</time>
      </trkpt>
      <trkpt lat="43.75537" lon="7.14331">
        <ele>613.45849609375</ele>
        <time>2012-06-17T10:43:09Z</time>
      </trkpt>
      <trkpt lat="43.75537" lon="7.14331">
        <ele>612.97778320312</ele>
        <time>2012-06-17T10:44:04Z</time>
      </trkpt>
      <trkpt lat="43.75524" lon="7.14336">
        <ele>608.65185546875</ele>
        <time>2012-06-17T10:44:09Z</time>
      </trkpt>
      <trkpt lat="43.75515" lon="7.14335">
        <ele>606.72924804688</ele>
        <time>2012-06-17T10:44:11Z</time>
      </trkpt>
      <trkpt lat="43.75506" lon="7.14332">
        <ele>605.76806640625</ele>
        <time>2012-06-17T10:44:13Z</time>
      </trkpt>
      <trkpt lat="43.75484" lon="7.14322">
        <ele>602.8837890625</ele>
        <time>2012-06-17T10:44:18Z</time>
      </trkpt>
      <trkpt lat="43.7547" lon="7.14318">
        <ele>600.48071289062</ele>
        <time>2012-06-17T10:44:21Z</time>
      </trkpt>
      <trkpt lat="43.75436" lon="7.14293">
        <ele>596.15478515625</ele>
        <time>2012-06-17T10:44:29Z</time>
      </trkpt>
      <trkpt lat="43.75422" lon="7.14286">
        <ele>594.23217773438</ele>
        <time>2012-06-17T10:44:32Z</time>
      </trkpt>
      <trkpt lat="43.75412" lon="7.14281">
        <ele>592.79028320312</ele>
        <time>2012-06-17T10:44:34Z</time>
      </trkpt>
      <trkpt lat="43.75392" lon="7.14268">
        <ele>589.90625</ele>
        <time>2012-06-17T10:44:39Z</time>
      </trkpt>
      <trkpt lat="43.7537" lon="7.14265">
        <ele>586.06079101562</ele>
        <time>2012-06-17T10:44:44Z</time>
      </trkpt>
      <trkpt lat="43.75363" lon="7.14263">
        <ele>585.099609375</ele>
        <time>2012-06-17T10:44:46Z</time>
      </trkpt>
      <trkpt lat="43.75358" lon="7.14262">
        <ele>583.65747070312</ele>
        <time>2012-06-17T10:44:48Z</time>
      </trkpt>
      <trkpt lat="43.75357" lon="7.14269">
        <ele>582.21557617188</ele>
        <time>2012-06-17T10:44:57Z</time>
      </trkpt>
      <trkpt lat="43.75362" lon="7.14275">
        <ele>580.77368164062</ele>
        <time>2012-06-17T10:45:18Z</time>
      </trkpt>
      <trkpt lat="43.75362" lon="7.14273">
        <ele>580.29296875</ele>
        <time>2012-06-17T10:45:38Z</time>
      </trkpt>
      <trkpt lat="43.75362" lon="7.14273">
        <ele>579.33154296875</ele>
        <time>2012-06-17T10:46:15Z</time>
      </trkpt>
      <trkpt lat="43.7536" lon="7.14276">
        <ele>579.81225585938</ele>
        <time>2012-06-17T11:07:22Z</time>
      </trkpt>
      <trkpt lat="43.75364" lon="7.14281">
        <ele>578.37036132812</ele>
        <time>2012-06-17T11:07:34Z</time>
      </trkpt>
      <trkpt lat="43.75375" lon="7.14292">
        <ele>574.52514648438</ele>
        <time>2012-06-17T11:07:38Z</time>
      </trkpt>
      <trkpt lat="43.75385" lon="7.143">
        <ele>573.56396484375</ele>
        <time>2012-06-17T11:07:41Z</time>
      </trkpt>
      <trkpt lat="43.75385" lon="7.14305">
        <ele>573.56396484375</ele>
        <time>2012-06-17T11:07:44Z</time>
      </trkpt>
      <trkpt lat="43.75372" lon="7.143">
        <ele>570.19897460938</ele>
        <time>2012-06-17T11:07:50Z</time>
      </trkpt>
      <trkpt lat="43.75354" lon="7.14294">
        <ele>566.83447265625</ele>
        <time>2012-06-17T11:07:56Z</time>
      </trkpt>
      <trkpt lat="43.75351" lon="7.14293">
        <ele>566.35375976562</ele>
        <time>2012-06-17T11:07:57Z</time>
      </trkpt>
      <trkpt lat="43.75339" lon="7.14287">
        <ele>563.95043945312</ele>
        <time>2012-06-17T11:08:01Z</time>
      </trkpt>
      <trkpt lat="43.75328" lon="7.14285">
        <ele>562.50854492188</ele>
        <time>2012-06-17T11:08:04Z</time>
      </trkpt>
      <trkpt lat="43.75315" lon="7.1428">
        <ele>561.06665039062</ele>
        <time>2012-06-17T11:08:07Z</time>
      </trkpt>
      <trkpt lat="43.75308" lon="7.14273">
        <ele>560.10522460938</ele>
        <time>2012-06-17T11:08:09Z</time>
      </trkpt>
      <trkpt lat="43.753" lon="7.14264">
        <ele>559.14404296875</ele>
        <time>2012-06-17T11:08:11Z</time>
      </trkpt>
      <trkpt lat="43.75296" lon="7.1426">
        <ele>558.18286132812</ele>
        <time>2012-06-17T11:08:12Z</time>
      </trkpt>
      <trkpt lat="43.7527" lon="7.14251">
        <ele>554.81787109375</ele>
        <time>2012-06-17T11:08:19Z</time>
      </trkpt>
      <trkpt lat="43.75251" lon="7.14249">
        <ele>551.45336914062</ele>
        <time>2012-06-17T11:08:24Z</time>
      </trkpt>
      <trkpt lat="43.75239" lon="7.14248">
        <ele>548.5693359375</ele>
        <time>2012-06-17T11:08:27Z</time>
      </trkpt>
      <trkpt lat="43.75213" lon="7.14241">
        <ele>544.24365234375</ele>
        <time>2012-06-17T11:08:33Z</time>
      </trkpt>
      <trkpt lat="43.7521" lon="7.14239">
        <ele>543.76281738281</ele>
        <time>2012-06-17T11:08:34Z</time>
      </trkpt>
      <trkpt lat="43.75191" lon="7.14222">
        <ele>541.84020996094</ele>
        <time>2012-06-17T11:08:39Z</time>
      </trkpt>
      <trkpt lat="43.75174" lon="7.14216">
        <ele>539.91760253906</ele>
        <time>2012-06-17T11:08:43Z</time>
      </trkpt>
      <trkpt lat="43.75156" lon="7.14203">
        <ele>537.03369140625</ele>
        <time>2012-06-17T11:08:47Z</time>
      </trkpt>
      <trkpt lat="43.7514" lon="7.14194">
        <ele>536.55310058594</ele>
        <time>2012-06-17T11:08:50Z</time>
      </trkpt>
      <trkpt lat="43.75115" lon="7.14185">
        <ele>533.6689453125</ele>
        <time>2012-06-17T11:08:57Z</time>
      </trkpt>
      <trkpt lat="43.75093" lon="7.14179">
        <ele>529.82373046875</ele>
        <time>2012-06-17T11:09:02Z</time>
      </trkpt>
      <trkpt lat="43.75072" lon="7.14172">
        <ele>526.93981933594</ele>
        <time>2012-06-17T11:09:07Z</time>
      </trkpt>
      <trkpt lat="43.75069" lon="7.14171">
        <ele>526.45910644531</ele>
        <time>2012-06-17T11:09:08Z</time>
      </trkpt>
      <trkpt lat="43.75062" lon="7.1417">
        <ele>525.49780273438</ele>
        <time>2012-06-17T11:09:17Z</time>
      </trkpt>
      <trkpt lat="43.75059" lon="7.1417">
        <ele>525.01721191406</ele>
        <time>2012-06-17T11:09:35Z</time>
      </trkpt>
      <trkpt lat="43.75058" lon="7.1417">
        <ele>525.01721191406</ele>
        <time>2012-06-17T11:09:48Z</time>
      </trkpt>
      <trkpt lat="43.7505" lon="7.14166">
        <ele>522.61389160156</ele>
        <time>2012-06-17T11:10:14Z</time>
      </trkpt>
      <trkpt lat="43.75047" lon="7.14171">
        <ele>522.13317871094</ele>
        <time>2012-06-17T11:10:18Z</time>
      </trkpt>
      <trkpt lat="43.75053" lon="7.14174">
        <ele>522.13317871094</ele>
        <time>2012-06-17T11:10:22Z</time>
      </trkpt>
      <trkpt lat="43.75097" lon="7.14193">
        <ele>521.65258789062</ele>
        <time>2012-06-17T11:10:38Z</time>
      </trkpt>
      <trkpt lat="43.75123" lon="7.14217">
        <ele>518.28784179688</ele>
        <time>2012-06-17T11:10:44Z</time>
      </trkpt>
      <trkpt lat="43.75134" lon="7.14225">
        <ele>516.84594726562</ele>
        <time>2012-06-17T11:10:46Z</time>
      </trkpt>
      <trkpt lat="43.75148" lon="7.14244">
        <ele>514.44262695312</ele>
        <time>2012-06-17T11:10:49Z</time>
      </trkpt>
      <trkpt lat="43.75167" lon="7.14263">
        <ele>512.03942871094</ele>
        <time>2012-06-17T11:10:52Z</time>
      </trkpt>
      <trkpt lat="43.75207" lon="7.14301">
        <ele>511.55871582031</ele>
        <time>2012-06-17T11:10:59Z</time>
      </trkpt>
      <trkpt lat="43.75227" lon="7.14325">
        <ele>508.19409179688</ele>
        <time>2012-06-17T11:11:03Z</time>
      </trkpt>
      <trkpt lat="43.75232" lon="7.14331">
        <ele>507.71350097656</ele>
        <time>2012-06-17T11:11:04Z</time>
      </trkpt>
      <trkpt lat="43.75242" lon="7.14355">
        <ele>507.23278808594</ele>
        <time>2012-06-17T11:11:11Z</time>
      </trkpt>
      <trkpt lat="43.75212" lon="7.14376">
        <ele>509.15539550781</ele>
        <time>2012-06-17T11:11:26Z</time>
      </trkpt>
      <trkpt lat="43.75199" lon="7.14387">
        <ele>506.75207519531</ele>
        <time>2012-06-17T11:11:31Z</time>
      </trkpt>
      <trkpt lat="43.75185" lon="7.14416">
        <ele>502.42614746094</ele>
        <time>2012-06-17T11:11:36Z</time>
      </trkpt>
      <trkpt lat="43.75176" lon="7.14471">
        <ele>498.58093261719</ele>
        <time>2012-06-17T11:11:45Z</time>
      </trkpt>
      <trkpt lat="43.75175" lon="7.14477">
        <ele>497.61962890625</ele>
        <time>2012-06-17T11:11:46Z</time>
      </trkpt>
      <trkpt lat="43.75165" lon="7.14499">
        <ele>492.33239746094</ele>
        <time>2012-06-17T11:11:50Z</time>
      </trkpt>
      <trkpt lat="43.75155" lon="7.14516">
        <ele>487.52563476562</ele>
        <time>2012-06-17T11:11:53Z</time>
      </trkpt>
      <trkpt lat="43.75147" lon="7.14541">
        <ele>482.23852539062</ele>
        <time>2012-06-17T11:11:56Z</time>
      </trkpt>
      <trkpt lat="43.75137" lon="7.14569">
        <ele>477.91247558594</ele>
        <time>2012-06-17T11:11:59Z</time>
      </trkpt>
      <trkpt lat="43.75126" lon="7.14595">
        <ele>475.02868652344</ele>
        <time>2012-06-17T11:12:02Z</time>
      </trkpt>
      <trkpt lat="43.75108" lon="7.14616">
        <ele>472.14465332031</ele>
        <time>2012-06-17T11:12:06Z</time>
      </trkpt>
      <trkpt lat="43.75091" lon="7.14628">
        <ele>467.33813476562</ele>
        <time>2012-06-17T11:12:10Z</time>
      </trkpt>
      <trkpt lat="43.75087" lon="7.14632">
        <ele>465.41552734375</ele>
        <time>2012-06-17T11:12:11Z</time>
      </trkpt>
      <trkpt lat="43.75073" lon="7.14653">
        <ele>461.57019042969</ele>
        <time>2012-06-17T11:12:15Z</time>
      </trkpt>
      <trkpt lat="43.7507" lon="7.1466">
        <ele>461.57019042969</ele>
        <time>2012-06-17T11:12:23Z</time>
      </trkpt>
      <trkpt lat="43.7507" lon="7.1466">
        <ele>460.60876464844</ele>
        <time>2012-06-17T11:13:56Z</time>
      </trkpt>
      <trkpt lat="43.75059" lon="7.14649">
        <ele>455.32153320312</ele>
        <time>2012-06-17T11:14:01Z</time>
      </trkpt>
      <trkpt lat="43.75041" lon="7.14624">
        <ele>453.39892578125</ele>
        <time>2012-06-17T11:14:06Z</time>
      </trkpt>
      <trkpt lat="43.75042" lon="7.14599">
        <ele>450.03442382812</ele>
        <time>2012-06-17T11:14:10Z</time>
      </trkpt>
      <trkpt lat="43.75038" lon="7.14577">
        <ele>449.5537109375</ele>
        <time>2012-06-17T11:14:14Z</time>
      </trkpt>
      <trkpt lat="43.7503" lon="7.14586">
        <ele>447.15026855469</ele>
        <time>2012-06-17T11:14:19Z</time>
      </trkpt>
      <trkpt lat="43.75028" lon="7.14598">
        <ele>446.66967773438</ele>
        <time>2012-06-17T11:14:21Z</time>
      </trkpt>
      <trkpt lat="43.75018" lon="7.1462">
        <ele>444.7470703125</ele>
        <time>2012-06-17T11:14:25Z</time>
      </trkpt>
      <trkpt lat="43.75007" lon="7.14653">
        <ele>441.38244628906</ele>
        <time>2012-06-17T11:14:29Z</time>
      </trkpt>
      <trkpt lat="43.75005" lon="7.14662">
        <ele>441.38244628906</ele>
        <time>2012-06-17T11:14:30Z</time>
      </trkpt>
      <trkpt lat="43.74992" lon="7.14723">
        <ele>438.01782226562</ele>
        <time>2012-06-17T11:14:36Z</time>
      </trkpt>
      <trkpt lat="43.74986" lon="7.14745">
        <ele>437.05651855469</ele>
        <time>2012-06-17T11:14:38Z</time>
      </trkpt>
      <trkpt lat="43.74979" lon="7.14781">
        <ele>435.13391113281</ele>
        <time>2012-06-17T11:14:41Z</time>
      </trkpt>
      <trkpt lat="43.74958" lon="7.14845">
        <ele>435.61450195312</ele>
        <time>2012-06-17T11:14:47Z</time>
      </trkpt>
      <trkpt lat="43.74926" lon="7.14896">
        <ele>437.537109375</ele>
        <time>2012-06-17T11:14:54Z</time>
      </trkpt>
      <trkpt lat="43.74912" lon="7.14922">
        <ele>437.537109375</ele>
        <time>2012-06-17T11:14:58Z</time>
      </trkpt>
      <trkpt lat="43.749" lon="7.14922">
        <ele>437.537109375</ele>
        <time>2012-06-17T11:15:04Z</time>
      </trkpt>
      <trkpt lat="43.74898" lon="7.1493">
        <ele>436.57592773438</ele>
        <time>2012-06-17T11:15:08Z</time>
      </trkpt>
      <trkpt lat="43.74896" lon="7.14936">
        <ele>437.05651855469</ele>
        <time>2012-06-17T11:15:22Z</time>
      </trkpt>
      <trkpt lat="43.74895" lon="7.14934">
        <ele>437.05651855469</ele>
        <time>2012-06-17T11:15:46Z</time>
      </trkpt>
      <trkpt lat="43.74897" lon="7.14922">
        <ele>436.57592773438</ele>
        <time>2012-06-17T11:15:53Z</time>
      </trkpt>
    </trkseg>
  </trk>
</gpx>